FWI43M TFFR-LFPO
Flight info
| Callsign | FWI43M |
|---|---|
| Flight time | 7h 22m |
| Altitude | 35000 |
| Route | CAIRN2R CAIRN DCT BNJEE DCT 22N055W 25N050W 28N045W/M084F370 32N040W 35N035W 38N030W 42N020W/M084F390 DCT PASAS DCT BUNAV UN536 TIVLU/N0476F380 DCT AKEMO DCT TERPO DCT ANG/N0476F270 UN482 DEKJA/N0485F280 UN482 NIMER DCT CAD |
| Aircraft | A35K/H-SDE2E3GHIJ3J4J5LM1ORWXY/LB1D1 |
Departure
| Time | 2026-04-20 11:29 |
|---|---|
| Airport | Maryse Condé International Airport (TFFR) |
Arrival
| Time | 2026-04-20 18:51 |
|---|---|
| Airport | Paris-Orly Airport (LFPO) |
| Time | Latitude | Longitude | Altitude | Speed | Heading |
|---|---|---|---|---|---|
| 2026-04-20 11:17 | 16.26898 | -61.52735 | 29 ft | 0 kts | 31° |
| 2026-04-20 11:20 | 16.26897 | -61.52735 | 29 ft | 1 kts | 31° |
| 2026-04-20 11:20 | 16.26876 | -61.52748 | 28 ft | 4 kts | 31° |
| 2026-04-20 11:21 | 16.26858 | -61.52760 | 26 ft | 4 kts | 43° |
| 2026-04-20 11:21 | 16.26842 | -61.52781 | 28 ft | 4 kts | 73° |
| 2026-04-20 11:21 | 16.26839 | -61.52808 | 28 ft | 4 kts | 98° |
| 2026-04-20 11:21 | 16.26841 | -61.52820 | 28 ft | 0 kts | 101° |
| 2026-04-20 11:24 | 16.26841 | -61.52817 | 29 ft | 2 kts | 102° |
| 2026-04-20 11:25 | 16.26827 | -61.52749 | 29 ft | 17 kts | 102° |
| 2026-04-20 11:25 | 16.26801 | -61.52610 | 29 ft | 23 kts | 98° |
| 2026-04-20 11:25 | 16.26772 | -61.52446 | 29 ft | 23 kts | 100° |
| 2026-04-20 11:25 | 16.26740 | -61.52277 | 29 ft | 24 kts | 101° |
| 2026-04-20 11:26 | 16.26685 | -61.52185 | 30 ft | 10 kts | 167° |
| 2026-04-20 11:26 | 16.26631 | -61.52190 | 32 ft | 8 kts | 191° |
| 2026-04-20 11:26 | 16.26569 | -61.52202 | 38 ft | 9 kts | 187° |
| 2026-04-20 11:26 | 16.26533 | -61.52187 | 42 ft | 7 kts | 135° |
| 2026-04-20 11:27 | 16.26504 | -61.52091 | 45 ft | 19 kts | 102° |
| 2026-04-20 11:27 | 16.26486 | -61.51999 | 47 ft | 19 kts | 102° |
| 2026-04-20 11:27 | 16.26461 | -61.51863 | 48 ft | 20 kts | 99° |
| 2026-04-20 11:27 | 16.26388 | -61.51789 | 47 ft | 12 kts | 183° |
| 2026-04-20 11:28 | 16.26302 | -61.51805 | 47 ft | 11 kts | 204° |
| 2026-04-20 11:28 | 16.26285 | -61.51855 | 47 ft | 7 kts | 274° |
| 2026-04-20 11:28 | 16.26288 | -61.51876 | 47 ft | 0 kts | 279° |
| 2026-04-20 11:28 | 16.26288 | -61.51877 | 47 ft | 1 kts | 279° |
| 2026-04-20 11:29 | 16.26321 | -61.52059 | 45 ft | 60 kts | 281° |
| 2026-04-20 11:29 | 16.26448 | -61.52731 | 34 ft | 127 kts | 281° |
| 2026-04-20 11:29 | 16.26656 | -61.53837 | 55 ft | 180 kts | 281° |
| 2026-04-20 11:29 | 16.26904 | -61.55116 | 715 ft | 181 kts | 283° |
| 2026-04-20 11:30 | 16.27161 | -61.56408 | 1340 ft | 188 kts | 287° |
| 2026-04-20 11:30 | 16.27452 | -61.57764 | 2006 ft | 191 kts | 288° |
| 2026-04-20 11:30 | 16.27764 | -61.59091 | 2637 ft | 187 kts | 287° |
| 2026-04-20 11:30 | 16.28257 | -61.60333 | 3006 ft | 186 kts | 317° |
| 2026-04-20 11:31 | 16.29357 | -61.60881 | 3310 ft | 177 kts | 8° |
| 2026-04-20 11:31 | 16.30593 | -61.60647 | 3569 ft | 188 kts | 20° |
| 2026-04-20 11:31 | 16.31932 | -61.60377 | 3888 ft | 206 kts | 8° |
| 2026-04-20 11:31 | 16.33434 | -61.60398 | 4188 ft | 225 kts | 2° |
| 2026-04-20 11:32 | 16.35064 | -61.60487 | 4497 ft | 243 kts | 1° |
| 2026-04-20 11:32 | 16.36811 | -61.60554 | 4881 ft | 258 kts | 2° |
| 2026-04-20 11:32 | 16.38642 | -61.60533 | 5367 ft | 268 kts | 6° |
| 2026-04-20 11:32 | 16.40514 | -61.60413 | 6076 ft | 269 kts | 7° |
| 2026-04-20 11:33 | 16.42386 | -61.60257 | 6817 ft | 270 kts | 7° |
| 2026-04-20 11:33 | 16.44277 | -61.60127 | 7498 ft | 274 kts | 8° |
| 2026-04-20 11:33 | 16.46137 | -61.59713 | 8190 ft | 274 kts | 27° |
| 2026-04-20 11:33 | 16.47672 | -61.58563 | 8921 ft | 275 kts | 46° |
| 2026-04-20 11:34 | 16.48824 | -61.56987 | 9717 ft | 273 kts | 59° |
| 2026-04-20 11:34 | 16.49652 | -61.55206 | 10446 ft | 277 kts | 66° |
| 2026-04-20 11:34 | 16.50458 | -61.53322 | 10770 ft | 293 kts | 64° |
| 2026-04-20 11:34 | 16.51355 | -61.51376 | 11090 ft | 310 kts | 63° |
| 2026-04-20 11:35 | 16.52318 | -61.49303 | 11375 ft | 327 kts | 63° |
| 2026-04-20 11:35 | 16.53318 | -61.47113 | 11664 ft | 342 kts | 63° |
| 2026-04-20 11:35 | 16.54355 | -61.44816 | 11968 ft | 357 kts | 64° |
| 2026-04-20 11:35 | 16.55422 | -61.42434 | 12222 ft | 370 kts | 64° |
| 2026-04-20 11:36 | 16.56529 | -61.39956 | 12492 ft | 382 kts | 64° |
| 2026-04-20 11:36 | 16.57661 | -61.37419 | 12898 ft | 389 kts | 64° |
| 2026-04-20 11:36 | 16.58806 | -61.34845 | 13390 ft | 393 kts | 64° |
| 2026-04-20 11:36 | 16.59961 | -61.32248 | 13846 ft | 399 kts | 63° |
| 2026-04-20 11:37 | 16.61136 | -61.29602 | 14242 ft | 404 kts | 63° |
| 2026-04-20 11:37 | 16.63523 | -61.24232 | 15102 ft | 412 kts | 63° |
| 2026-04-20 11:37 | 16.64729 | -61.21520 | 15568 ft | 414 kts | 63° |
| 2026-04-20 11:38 | 16.65949 | -61.18772 | 15951 ft | 419 kts | 63° |
| 2026-04-20 11:38 | 16.67177 | -61.16007 | 16387 ft | 422 kts | 63° |
| 2026-04-20 11:38 | 16.68415 | -61.13209 | 16792 ft | 426 kts | 63° |
| 2026-04-20 11:38 | 16.69661 | -61.10399 | 17271 ft | 428 kts | 63° |
| 2026-04-20 11:39 | 16.70919 | -61.07561 | 17662 ft | 433 kts | 63° |
| 2026-04-20 11:39 | 16.72167 | -61.04743 | 18095 ft | 435 kts | 63° |
| 2026-04-20 11:39 | 16.73461 | -61.01824 | 18444 ft | 440 kts | 63° |
| 2026-04-20 11:39 | 16.74748 | -60.98915 | 18816 ft | 443 kts | 63° |
| 2026-04-20 11:40 | 16.76043 | -60.95989 | 19184 ft | 445 kts | 63° |
| 2026-04-20 11:40 | 16.77327 | -60.93084 | 19546 ft | 448 kts | 63° |
| 2026-04-20 11:40 | 16.78634 | -60.90126 | 19948 ft | 450 kts | 63° |
| 2026-04-20 11:40 | 16.79949 | -60.87150 | 20337 ft | 453 kts | 63° |
| 2026-04-20 11:41 | 16.81271 | -60.84156 | 20729 ft | 456 kts | 63° |
| 2026-04-20 11:41 | 16.82601 | -60.81143 | 21117 ft | 458 kts | 63° |
| 2026-04-20 11:41 | 16.83940 | -60.78108 | 21528 ft | 461 kts | 63° |
| 2026-04-20 11:41 | 16.85282 | -60.75065 | 21957 ft | 463 kts | 63° |
| 2026-04-20 11:42 | 16.86635 | -60.71996 | 22312 ft | 467 kts | 63° |
| 2026-04-20 11:42 | 16.87997 | -60.68905 | 22696 ft | 470 kts | 63° |
| 2026-04-20 11:42 | 16.89370 | -60.65794 | 23109 ft | 473 kts | 62° |
| 2026-04-20 11:42 | 16.90914 | -60.62754 | 23491 ft | 474 kts | 55° |
| 2026-04-20 11:43 | 16.92851 | -60.59975 | 23819 ft | 473 kts | 46° |
| 2026-04-20 11:43 | 16.95181 | -60.57546 | 24110 ft | 473 kts | 37° |
| 2026-04-20 11:43 | 16.97841 | -60.55533 | 24396 ft | 473 kts | 28° |
| 2026-04-20 11:43 | 17.00701 | -60.53822 | 24715 ft | 475 kts | 25° |
| 2026-04-20 11:44 | 17.03630 | -60.52206 | 25052 ft | 478 kts | 24° |
| 2026-04-20 11:44 | 17.06606 | -60.50626 | 25394 ft | 481 kts | 23° |
| 2026-04-20 11:44 | 17.09609 | -60.49048 | 25742 ft | 485 kts | 23° |
| 2026-04-20 11:44 | 17.12620 | -60.47457 | 26218 ft | 485 kts | 23° |
| 2026-04-20 11:45 | 17.15632 | -60.45854 | 26590 ft | 488 kts | 23° |
| 2026-04-20 11:45 | 17.18684 | -60.44219 | 26719 ft | 497 kts | 24° |
| 2026-04-20 11:45 | 17.21776 | -60.42554 | 27045 ft | 501 kts | 24° |
| 2026-04-20 11:45 | 17.24881 | -60.40875 | 27414 ft | 504 kts | 24° |
| 2026-04-20 11:46 | 17.27969 | -60.39201 | 27738 ft | 508 kts | 24° |
| 2026-04-20 11:46 | 17.31120 | -60.37492 | 28063 ft | 511 kts | 24° |
| 2026-04-20 11:46 | 17.34287 | -60.35775 | 28387 ft | 515 kts | 24° |
| 2026-04-20 11:46 | 17.37478 | -60.34044 | 28699 ft | 518 kts | 24° |
| 2026-04-20 11:47 | 17.40677 | -60.32307 | 29242 ft | 516 kts | 24° |
| 2026-04-20 11:47 | 17.43868 | -60.30574 | 29605 ft | 518 kts | 24° |
| 2026-04-20 11:47 | 17.47082 | -60.28830 | 29820 ft | 522 kts | 23° |
| 2026-04-20 11:47 | 17.50313 | -60.27077 | 30170 ft | 523 kts | 23° |
| 2026-04-20 11:48 | 17.53550 | -60.25318 | 30476 ft | 525 kts | 23° |
| 2026-04-20 11:48 | 17.56800 | -60.23553 | 30694 ft | 528 kts | 23° |
| 2026-04-20 11:48 | 17.60065 | -60.21779 | 30939 ft | 530 kts | 23° |
| 2026-04-20 11:48 | 17.63351 | -60.19993 | 31186 ft | 532 kts | 23° |
| 2026-04-20 11:49 | 17.66644 | -60.18201 | 31538 ft | 531 kts | 23° |
| 2026-04-20 11:49 | 17.69896 | -60.16428 | 32049 ft | 527 kts | 23° |
| 2026-04-20 11:49 | 17.76486 | -60.12843 | 32221 ft | 539 kts | 23° |
| 2026-04-20 11:50 | 17.79823 | -60.11026 | 32457 ft | 540 kts | 23° |
| 2026-04-20 11:50 | 17.83165 | -60.09204 | 32695 ft | 542 kts | 23° |
| 2026-04-20 11:50 | 17.86473 | -60.07400 | 32909 ft | 544 kts | 23° |
| 2026-04-20 11:50 | 17.89838 | -60.05564 | 33130 ft | 546 kts | 22° |
| 2026-04-20 11:51 | 17.93213 | -60.03721 | 33403 ft | 546 kts | 23° |
| 2026-04-20 11:51 | 17.96561 | -60.01862 | 33877 ft | 544 kts | 25° |
| 2026-04-20 11:51 | 17.99725 | -59.99651 | 34092 ft | 551 kts | 35° |
| 2026-04-20 11:51 | 18.02559 | -59.96896 | 34232 ft | 556 kts | 44° |
| 2026-04-20 11:52 | 18.05196 | -59.93918 | 34505 ft | 557 kts | 45° |
| 2026-04-20 11:52 | 18.07764 | -59.90870 | 34784 ft | 556 kts | 46° |
| 2026-04-20 11:52 | 18.10293 | -59.87799 | 35020 ft | 556 kts | 47° |
| 2026-04-20 11:52 | 18.12827 | -59.84704 | 35082 ft | 560 kts | 47° |
| 2026-04-20 11:53 | 18.17967 | -59.78450 | 35111 ft | 570 kts | 46° |
| 2026-04-20 11:53 | 18.23164 | -59.72169 | 35082 ft | 566 kts | 46° |
| 2026-04-20 11:54 | 18.28332 | -59.65940 | 35083 ft | 564 kts | 46° |
| 2026-04-20 11:54 | 18.33451 | -59.59769 | 35077 ft | 564 kts | 46° |
| 2026-04-20 11:55 | 18.38643 | -59.53505 | 35086 ft | 573 kts | 46° |
| 2026-04-20 11:55 | 18.43891 | -59.47163 | 35101 ft | 573 kts | 46° |
| 2026-04-20 11:56 | 18.49095 | -59.40861 | 35085 ft | 568 kts | 46° |
| 2026-04-20 11:56 | 18.54276 | -59.34586 | 35086 ft | 567 kts | 46° |
| 2026-04-20 11:57 | 18.59462 | -59.28299 | 35085 ft | 570 kts | 46° |
| 2026-04-20 11:57 | 18.64699 | -59.21947 | 35089 ft | 575 kts | 47° |
| 2026-04-20 11:58 | 18.69950 | -59.15567 | 35089 ft | 576 kts | 47° |
| 2026-04-20 11:58 | 18.75196 | -59.09186 | 35089 ft | 576 kts | 47° |
| 2026-04-20 11:59 | 18.80437 | -59.02805 | 35085 ft | 575 kts | 47° |
| 2026-04-20 11:59 | 18.85702 | -58.96390 | 35089 ft | 581 kts | 47° |
| 2026-04-20 12:00 | 18.90998 | -58.89928 | 35119 ft | 582 kts | 47° |
| 2026-04-20 12:00 | 18.96264 | -58.83493 | 35096 ft | 577 kts | 47° |
| 2026-04-20 12:01 | 19.01504 | -58.77088 | 35094 ft | 576 kts | 47° |
| 2026-04-20 12:01 | 19.06715 | -58.70713 | 35094 ft | 576 kts | 47° |
| 2026-04-20 12:02 | 19.11955 | -58.64294 | 35094 ft | 576 kts | 47° |
| 2026-04-20 12:02 | 19.17188 | -58.57876 | 35097 ft | 575 kts | 47° |
| 2026-04-20 12:03 | 19.22393 | -58.51484 | 35096 ft | 572 kts | 47° |
| 2026-04-20 12:03 | 19.27586 | -58.45102 | 35094 ft | 574 kts | 47° |
| 2026-04-20 12:04 | 19.32821 | -58.38664 | 35100 ft | 579 kts | 47° |
| 2026-04-20 12:04 | 19.38071 | -58.32198 | 35130 ft | 579 kts | 47° |
| 2026-04-20 12:05 | 19.43296 | -58.25753 | 35098 ft | 573 kts | 47° |
| 2026-04-20 12:05 | 19.48482 | -58.19352 | 35091 ft | 572 kts | 47° |
| 2026-04-20 12:06 | 19.53698 | -58.12910 | 35103 ft | 579 kts | 47° |
| 2026-04-20 12:06 | 19.58950 | -58.06413 | 35102 ft | 581 kts | 47° |
| 2026-04-20 12:07 | 19.64205 | -57.99904 | 35085 ft | 578 kts | 47° |
| 2026-04-20 12:07 | 19.69406 | -57.93455 | 35106 ft | 574 kts | 47° |
| 2026-04-20 12:08 | 19.74584 | -57.87030 | 35103 ft | 578 kts | 47° |
| 2026-04-20 12:08 | 19.79825 | -57.80521 | 35102 ft | 580 kts | 47° |
| 2026-04-20 12:09 | 19.85068 | -57.74000 | 35113 ft | 580 kts | 47° |
| 2026-04-20 12:09 | 19.90280 | -57.67509 | 35107 ft | 575 kts | 47° |
| 2026-04-20 12:10 | 19.95469 | -57.61040 | 35101 ft | 578 kts | 47° |
| 2026-04-20 12:10 | 20.00702 | -57.54513 | 35100 ft | 581 kts | 47° |
| 2026-04-20 12:11 | 20.05947 | -57.47961 | 35118 ft | 581 kts | 47° |
| 2026-04-20 12:11 | 20.11158 | -57.41439 | 35107 ft | 573 kts | 47° |
| 2026-04-20 12:12 | 20.16300 | -57.35000 | 35108 ft | 572 kts | 47° |
| 2026-04-20 12:12 | 20.21499 | -57.28487 | 35116 ft | 581 kts | 47° |
| 2026-04-20 12:13 | 20.26728 | -57.21926 | 35108 ft | 581 kts | 48° |
| 2026-04-20 12:13 | 20.31940 | -57.15376 | 35131 ft | 576 kts | 47° |
| 2026-04-20 12:14 | 20.37039 | -57.08958 | 35101 ft | 569 kts | 48° |
| 2026-04-20 12:14 | 20.42196 | -57.02469 | 35115 ft | 579 kts | 48° |
| 2026-04-20 12:15 | 20.46523 | -56.97017 | 35116 ft | 579 kts | 48° |
| 2026-04-20 12:15 | 20.51752 | -56.90417 | 35141 ft | 579 kts | 48° |
| 2026-04-20 12:16 | 20.56900 | -56.83910 | 35114 ft | 569 kts | 48° |
| 2026-04-20 12:16 | 20.61988 | -56.77475 | 35121 ft | 574 kts | 48° |
| 2026-04-20 12:17 | 20.67150 | -56.70941 | 35121 ft | 576 kts | 48° |
| 2026-04-20 12:17 | 20.72310 | -56.64400 | 35121 ft | 576 kts | 48° |
| 2026-04-20 12:18 | 20.77450 | -56.57875 | 35124 ft | 569 kts | 48° |
| 2026-04-20 12:18 | 20.82550 | -56.51394 | 35123 ft | 573 kts | 48° |
| 2026-04-20 12:19 | 20.87702 | -56.44843 | 35122 ft | 576 kts | 48° |
| 2026-04-20 12:19 | 20.92853 | -56.38283 | 35121 ft | 576 kts | 48° |
| 2026-04-20 12:20 | 20.97996 | -56.31724 | 35124 ft | 576 kts | 48° |
| 2026-04-20 12:20 | 21.03160 | -56.25132 | 35125 ft | 581 kts | 48° |
| 2026-04-20 12:21 | 21.08368 | -56.18478 | 35127 ft | 584 kts | 48° |
| 2026-04-20 12:21 | 21.13574 | -56.11814 | 35126 ft | 584 kts | 48° |
| 2026-04-20 12:22 | 21.18781 | -56.05142 | 35136 ft | 580 kts | 48° |
| 2026-04-20 12:22 | 21.23894 | -55.98581 | 35127 ft | 575 kts | 48° |
| 2026-04-20 12:23 | 21.29019 | -55.92000 | 35128 ft | 575 kts | 48° |
| 2026-04-20 12:23 | 21.34140 | -55.85416 | 35127 ft | 575 kts | 48° |
| 2026-04-20 12:24 | 21.39263 | -55.78823 | 35147 ft | 574 kts | 48° |
| 2026-04-20 12:24 | 21.44355 | -55.72258 | 35124 ft | 572 kts | 48° |
| 2026-04-20 12:25 | 21.49444 | -55.65692 | 35135 ft | 572 kts | 48° |
| 2026-04-20 12:25 | 21.54532 | -55.59119 | 35139 ft | 572 kts | 48° |
| 2026-04-20 12:26 | 21.59624 | -55.52533 | 35145 ft | 572 kts | 48° |
| 2026-04-20 12:26 | 21.64696 | -55.45963 | 35134 ft | 571 kts | 48° |
| 2026-04-20 12:27 | 21.69771 | -55.39383 | 35138 ft | 572 kts | 48° |
| 2026-04-20 12:27 | 21.74846 | -55.32795 | 35135 ft | 572 kts | 48° |
| 2026-04-20 12:28 | 21.79917 | -55.26204 | 35146 ft | 572 kts | 48° |
| 2026-04-20 12:28 | 21.84963 | -55.19637 | 35139 ft | 574 kts | 48° |
| 2026-04-20 12:29 | 21.90089 | -55.12957 | 35140 ft | 575 kts | 49° |
| 2026-04-20 12:29 | 21.95143 | -55.06364 | 35141 ft | 575 kts | 49° |
| 2026-04-20 12:30 | 22.00149 | -54.99645 | 35136 ft | 576 kts | 53° |
| 2026-04-20 12:30 | 22.04736 | -54.92541 | 35146 ft | 577 kts | 54° |
| 2026-04-20 12:31 | 22.09237 | -54.85373 | 35144 ft | 576 kts | 55° |
| 2026-04-20 12:31 | 22.13716 | -54.78200 | 35143 ft | 576 kts | 55° |
| 2026-04-20 12:32 | 22.18199 | -54.71030 | 35144 ft | 579 kts | 55° |
| 2026-04-20 12:32 | 22.22715 | -54.63812 | 35148 ft | 578 kts | 55° |
| 2026-04-20 12:33 | 22.27197 | -54.56640 | 35146 ft | 575 kts | 55° |
| 2026-04-20 12:33 | 22.31666 | -54.49479 | 35135 ft | 575 kts | 55° |
| 2026-04-20 12:34 | 22.36157 | -54.42274 | 35147 ft | 583 kts | 55° |
| 2026-04-20 12:34 | 22.40688 | -54.34993 | 35151 ft | 581 kts | 55° |
| 2026-04-20 12:35 | 22.45167 | -54.27784 | 35151 ft | 575 kts | 55° |
| 2026-04-20 12:35 | 22.49625 | -54.20600 | 35152 ft | 578 kts | 55° |
| 2026-04-20 12:36 | 22.54134 | -54.13328 | 35152 ft | 584 kts | 55° |
| 2026-04-20 12:36 | 22.58651 | -54.06029 | 35164 ft | 583 kts | 55° |
| 2026-04-20 12:37 | 22.63088 | -53.98848 | 35140 ft | 575 kts | 55° |
| 2026-04-20 12:37 | 22.67549 | -53.91621 | 35155 ft | 581 kts | 55° |
| 2026-04-20 12:38 | 22.72043 | -53.84332 | 35154 ft | 583 kts | 55° |
| 2026-04-20 12:38 | 22.76538 | -53.77029 | 35179 ft | 582 kts | 56° |
| 2026-04-20 12:39 | 22.83242 | -53.66117 | 35160 ft | 581 kts | 56° |
| 2026-04-20 12:40 | 22.87721 | -53.58815 | 35159 ft | 582 kts | 56° |
| 2026-04-20 12:40 | 22.92197 | -53.51507 | 35162 ft | 581 kts | 56° |
| 2026-04-20 12:41 | 22.96667 | -53.44199 | 35159 ft | 581 kts | 56° |
| 2026-04-20 12:41 | 23.01137 | -53.36880 | 35159 ft | 581 kts | 56° |
| 2026-04-20 12:42 | 23.05602 | -53.29560 | 35159 ft | 581 kts | 56° |
| 2026-04-20 12:42 | 23.10062 | -53.22237 | 35154 ft | 583 kts | 56° |
| 2026-04-20 12:43 | 23.14563 | -53.14838 | 35162 ft | 585 kts | 56° |
| 2026-04-20 12:43 | 23.19026 | -53.07488 | 35162 ft | 580 kts | 56° |
| 2026-04-20 12:44 | 23.23467 | -53.00164 | 35145 ft | 580 kts | 56° |
| 2026-04-20 12:44 | 23.27932 | -52.92792 | 35167 ft | 589 kts | 56° |
| 2026-04-20 12:45 | 23.32408 | -52.85390 | 35166 ft | 586 kts | 56° |
| 2026-04-20 12:45 | 23.36857 | -52.78020 | 35165 ft | 580 kts | 56° |
| 2026-04-20 12:46 | 23.41298 | -52.70657 | 35169 ft | 585 kts | 56° |
| 2026-04-20 12:46 | 23.45770 | -52.63228 | 35167 ft | 587 kts | 56° |
| 2026-04-20 12:47 | 23.50241 | -52.55792 | 35172 ft | 584 kts | 56° |
| 2026-04-20 12:47 | 23.54675 | -52.48404 | 35167 ft | 582 kts | 56° |
| 2026-04-20 12:48 | 23.59125 | -52.40982 | 35167 ft | 586 kts | 56° |
| 2026-04-20 12:48 | 23.63585 | -52.33531 | 35173 ft | 586 kts | 56° |
| 2026-04-20 12:49 | 23.68027 | -52.26098 | 35164 ft | 583 kts | 56° |
| 2026-04-20 12:49 | 23.72465 | -52.18661 | 35175 ft | 586 kts | 56° |
| 2026-04-20 12:50 | 23.76911 | -52.11201 | 35179 ft | 586 kts | 56° |
| 2026-04-20 12:50 | 23.81354 | -52.03734 | 35160 ft | 586 kts | 56° |
| 2026-04-20 12:51 | 23.85777 | -51.96289 | 35179 ft | 587 kts | 56° |
| 2026-04-20 12:51 | 23.90212 | -51.88813 | 35181 ft | 586 kts | 57° |
| 2026-04-20 12:52 | 23.94644 | -51.81332 | 35180 ft | 586 kts | 57° |
| 2026-04-20 12:52 | 23.99080 | -51.73832 | 35203 ft | 589 kts | 57° |
| 2026-04-20 12:53 | 24.03509 | -51.66331 | 35181 ft | 583 kts | 57° |
| 2026-04-20 12:53 | 24.07899 | -51.58886 | 35182 ft | 582 kts | 57° |
| 2026-04-20 12:54 | 24.12289 | -51.51431 | 35182 ft | 586 kts | 57° |
| 2026-04-20 12:54 | 24.16721 | -51.43892 | 35196 ft | 588 kts | 57° |
| 2026-04-20 12:55 | 24.21112 | -51.36411 | 35180 ft | 581 kts | 57° |
| 2026-04-20 12:55 | 24.25474 | -51.28969 | 35186 ft | 582 kts | 57° |
| 2026-04-20 12:56 | 24.29860 | -51.21474 | 35186 ft | 585 kts | 57° |
| 2026-04-20 12:56 | 24.34238 | -51.13981 | 35195 ft | 581 kts | 57° |
| 2026-04-20 12:57 | 24.38576 | -51.06547 | 35191 ft | 577 kts | 57° |
| 2026-04-20 12:57 | 24.42892 | -50.99137 | 35194 ft | 576 kts | 57° |
| 2026-04-20 12:58 | 24.47174 | -50.91776 | 35192 ft | 576 kts | 57° |
| 2026-04-20 12:58 | 24.51465 | -50.84386 | 35192 ft | 571 kts | 57° |
| 2026-04-20 12:59 | 24.55735 | -50.77023 | 35192 ft | 572 kts | 57° |
| 2026-04-20 12:59 | 24.60006 | -50.69647 | 35195 ft | 572 kts | 57° |
| 2026-04-20 13:00 | 24.64277 | -50.62261 | 35185 ft | 574 kts | 57° |
| 2026-04-20 13:00 | 24.68590 | -50.54789 | 35201 ft | 583 kts | 57° |
| 2026-04-20 13:01 | 24.72936 | -50.47249 | 35196 ft | 582 kts | 57° |
| 2026-04-20 13:01 | 24.77267 | -50.39722 | 35188 ft | 583 kts | 57° |
| 2026-04-20 13:02 | 24.81618 | -50.32150 | 35201 ft | 584 kts | 57° |
| 2026-04-20 13:02 | 24.85928 | -50.24636 | 35197 ft | 579 kts | 57° |
| 2026-04-20 13:03 | 24.89501 | -50.18398 | 35186 ft | 579 kts | 57° |
| 2026-04-20 13:03 | 24.93814 | -50.10859 | 35199 ft | 584 kts | 57° |
| 2026-04-20 13:04 | 24.98137 | -50.03290 | 35202 ft | 580 kts | 57° |
| 2026-04-20 13:04 | 25.02462 | -49.95839 | 35187 ft | 575 kts | 55° |
| 2026-04-20 13:05 | 25.07077 | -49.88590 | 35201 ft | 579 kts | 53° |
| 2026-04-20 13:05 | 25.11762 | -49.81346 | 35215 ft | 580 kts | 54° |
| 2026-04-20 13:06 | 25.16370 | -49.74106 | 35185 ft | 573 kts | 54° |
| 2026-04-20 13:06 | 25.20933 | -49.66859 | 35203 ft | 578 kts | 54° |
| 2026-04-20 13:07 | 25.25516 | -49.59554 | 35203 ft | 579 kts | 54° |
| 2026-04-20 13:07 | 25.30087 | -49.52261 | 35189 ft | 572 kts | 54° |
| 2026-04-20 13:08 | 25.34617 | -49.45027 | 35205 ft | 574 kts | 54° |
| 2026-04-20 13:08 | 25.39163 | -49.37757 | 35201 ft | 575 kts | 54° |
| 2026-04-20 13:09 | 25.43712 | -49.30473 | 35223 ft | 574 kts | 54° |
| 2026-04-20 13:09 | 25.48192 | -49.23285 | 35204 ft | 571 kts | 54° |
| 2026-04-20 13:10 | 25.52707 | -49.16033 | 35210 ft | 572 kts | 54° |
| 2026-04-20 13:10 | 25.57217 | -49.08777 | 35208 ft | 572 kts | 54° |
| 2026-04-20 13:11 | 25.61714 | -49.01529 | 35207 ft | 569 kts | 54° |
| 2026-04-20 13:11 | 25.66193 | -48.94301 | 35208 ft | 568 kts | 54° |
| 2026-04-20 13:12 | 25.70665 | -48.87071 | 35210 ft | 568 kts | 54° |
| 2026-04-20 13:12 | 25.75126 | -48.79850 | 35216 ft | 564 kts | 55° |
| 2026-04-20 13:13 | 25.79534 | -48.72701 | 35208 ft | 559 kts | 55° |
| 2026-04-20 13:13 | 25.83918 | -48.65582 | 35208 ft | 558 kts | 55° |
| 2026-04-20 13:14 | 25.88315 | -48.58430 | 35225 ft | 564 kts | 55° |
| 2026-04-20 13:14 | 25.92715 | -48.51264 | 35217 ft | 559 kts | 55° |
| 2026-04-20 13:15 | 25.97084 | -48.44136 | 35212 ft | 558 kts | 55° |
| 2026-04-20 13:15 | 26.01432 | -48.37032 | 35213 ft | 561 kts | 55° |
| 2026-04-20 13:16 | 26.05813 | -48.29863 | 35221 ft | 558 kts | 55° |
| 2026-04-20 13:16 | 26.10160 | -48.22737 | 35221 ft | 555 kts | 55° |
| 2026-04-20 13:17 | 26.14502 | -48.15609 | 35217 ft | 560 kts | 55° |
| 2026-04-20 13:17 | 26.18873 | -48.08423 | 35218 ft | 561 kts | 55° |
| 2026-04-20 13:18 | 26.23245 | -48.01224 | 35200 ft | 561 kts | 55° |
| 2026-04-20 13:18 | 26.27623 | -47.94003 | 35213 ft | 564 kts | 55° |
| 2026-04-20 13:19 | 26.32014 | -47.86750 | 35224 ft | 564 kts | 55° |
| 2026-04-20 13:19 | 26.36371 | -47.79541 | 35201 ft | 558 kts | 55° |
| 2026-04-20 13:20 | 26.40718 | -47.72337 | 35218 ft | 561 kts | 55° |
| 2026-04-20 13:20 | 26.45079 | -47.65099 | 35219 ft | 562 kts | 55° |
| 2026-04-20 13:21 | 26.49420 | -47.57880 | 35208 ft | 557 kts | 55° |
| 2026-04-20 13:21 | 26.53747 | -47.50675 | 35220 ft | 560 kts | 55° |
| 2026-04-20 13:22 | 26.58086 | -47.43440 | 35221 ft | 561 kts | 55° |
| 2026-04-20 13:22 | 26.62384 | -47.36261 | 35212 ft | 558 kts | 55° |
| 2026-04-20 13:23 | 26.66695 | -47.29048 | 35224 ft | 558 kts | 55° |
| 2026-04-20 13:23 | 26.71002 | -47.21831 | 35218 ft | 558 kts | 55° |
| 2026-04-20 13:24 | 26.75309 | -47.14602 | 35223 ft | 558 kts | 55° |
| 2026-04-20 13:24 | 26.79605 | -47.07379 | 35223 ft | 557 kts | 55° |
| 2026-04-20 13:25 | 26.83893 | -47.00158 | 35223 ft | 557 kts | 56° |
| 2026-04-20 13:25 | 26.88182 | -46.92926 | 35234 ft | 557 kts | 56° |
| 2026-04-20 13:26 | 26.92452 | -46.85712 | 35227 ft | 554 kts | 56° |
| 2026-04-20 13:26 | 26.96706 | -46.78513 | 35226 ft | 554 kts | 56° |
| 2026-04-20 13:27 | 27.00960 | -46.71305 | 35240 ft | 554 kts | 56° |
| 2026-04-20 13:27 | 27.05184 | -46.64133 | 35226 ft | 549 kts | 56° |
| 2026-04-20 13:28 | 27.09382 | -46.56996 | 35232 ft | 548 kts | 56° |
| 2026-04-20 13:28 | 27.13588 | -46.49832 | 35227 ft | 551 kts | 56° |
| 2026-04-20 13:29 | 27.17795 | -46.42659 | 35233 ft | 548 kts | 56° |
| 2026-04-20 13:29 | 27.21945 | -46.35568 | 35218 ft | 547 kts | 56° |
| 2026-04-20 13:30 | 27.26131 | -46.28403 | 35230 ft | 550 kts | 56° |
| 2026-04-20 13:30 | 27.30319 | -46.21226 | 35216 ft | 547 kts | 56° |
| 2026-04-20 13:31 | 27.34475 | -46.14090 | 35229 ft | 546 kts | 56° |
| 2026-04-20 13:31 | 27.38642 | -46.06925 | 35229 ft | 548 kts | 56° |
| 2026-04-20 13:32 | 27.42808 | -45.99750 | 35234 ft | 546 kts | 56° |
| 2026-04-20 13:32 | 27.46945 | -45.92611 | 35226 ft | 545 kts | 56° |
| 2026-04-20 13:33 | 27.51088 | -45.85451 | 35232 ft | 546 kts | 56° |
| 2026-04-20 13:33 | 27.55237 | -45.78270 | 35229 ft | 547 kts | 56° |
| 2026-04-20 13:34 | 27.59387 | -45.71075 | 35232 ft | 548 kts | 56° |
| 2026-04-20 13:34 | 27.63541 | -45.63861 | 35228 ft | 549 kts | 56° |
| 2026-04-20 13:35 | 27.67689 | -45.56646 | 35224 ft | 547 kts | 56° |
| 2026-04-20 13:35 | 27.71821 | -45.49447 | 35231 ft | 547 kts | 56° |
| 2026-04-20 13:36 | 27.75953 | -45.42235 | 35230 ft | 547 kts | 56° |
| 2026-04-20 13:36 | 27.80051 | -45.35071 | 35233 ft | 546 kts | 56° |
| 2026-04-20 13:37 | 27.84166 | -45.27865 | 35228 ft | 545 kts | 56° |
| 2026-04-20 13:37 | 27.88273 | -45.20661 | 35227 ft | 545 kts | 56° |
| 2026-04-20 13:38 | 27.92380 | -45.13444 | 35233 ft | 546 kts | 56° |
| 2026-04-20 13:38 | 27.96479 | -45.06231 | 35234 ft | 545 kts | 56° |
| 2026-04-20 13:39 | 28.00833 | -44.99250 | 35496 ft | 541 kts | 46° |
| 2026-04-20 13:39 | 28.03355 | -44.96090 | 35692 ft | 542 kts | 45° |
| 2026-04-20 13:39 | 28.05939 | -44.92972 | 35866 ft | 543 kts | 44° |
| 2026-04-20 13:39 | 28.08558 | -44.89877 | 36044 ft | 545 kts | 43° |
| 2026-04-20 13:40 | 28.11193 | -44.86791 | 36333 ft | 543 kts | 43° |
| 2026-04-20 13:40 | 28.13822 | -44.83715 | 36522 ft | 545 kts | 43° |
| 2026-04-20 13:40 | 28.16463 | -44.80620 | 36663 ft | 547 kts | 43° |
| 2026-04-20 13:40 | 28.19107 | -44.77512 | 36831 ft | 548 kts | 43° |
| 2026-04-20 13:41 | 28.21753 | -44.74393 | 36990 ft | 549 kts | 43° |
| 2026-04-20 13:41 | 28.24402 | -44.71264 | 37133 ft | 551 kts | 43° |
| 2026-04-20 13:41 | 28.27026 | -44.68160 | 37226 ft | 554 kts | 43° |
| 2026-04-20 13:42 | 28.32385 | -44.61812 | 37234 ft | 558 kts | 43° |
| 2026-04-20 13:42 | 28.40413 | -44.52277 | 37238 ft | 556 kts | 43° |
| 2026-04-20 13:43 | 28.45757 | -44.45920 | 37235 ft | 556 kts | 43° |
| 2026-04-20 13:43 | 28.51098 | -44.39559 | 37247 ft | 555 kts | 43° |
| 2026-04-20 13:44 | 28.56395 | -44.33237 | 37240 ft | 550 kts | 43° |
| 2026-04-20 13:44 | 28.61667 | -44.26937 | 37241 ft | 549 kts | 43° |
| 2026-04-20 13:45 | 28.66934 | -44.20636 | 37241 ft | 549 kts | 43° |
| 2026-04-20 13:45 | 28.72194 | -44.14332 | 37241 ft | 548 kts | 43° |
| 2026-04-20 13:46 | 28.77412 | -44.08069 | 37241 ft | 548 kts | 43° |
| 2026-04-20 13:46 | 28.82658 | -44.01761 | 37244 ft | 548 kts | 43° |
| 2026-04-20 13:47 | 28.87894 | -43.95456 | 37246 ft | 547 kts | 43° |
| 2026-04-20 13:47 | 28.93120 | -43.89155 | 37250 ft | 545 kts | 44° |
| 2026-04-20 13:48 | 28.98309 | -43.82885 | 37246 ft | 541 kts | 44° |
| 2026-04-20 13:48 | 29.03459 | -43.76655 | 37246 ft | 539 kts | 44° |
| 2026-04-20 13:49 | 29.08602 | -43.70424 | 37245 ft | 538 kts | 44° |
| 2026-04-20 13:49 | 29.13737 | -43.64193 | 37247 ft | 538 kts | 44° |
| 2026-04-20 13:50 | 29.18866 | -43.57959 | 37248 ft | 538 kts | 44° |
| 2026-04-20 13:50 | 29.23995 | -43.51715 | 37250 ft | 538 kts | 44° |
| 2026-04-20 13:51 | 29.28252 | -43.46525 | 37252 ft | 538 kts | 44° |
| 2026-04-20 13:51 | 29.34197 | -43.39266 | 37261 ft | 536 kts | 44° |
| 2026-04-20 13:52 | 29.39262 | -43.33069 | 37259 ft | 530 kts | 44° |
| 2026-04-20 13:52 | 29.44290 | -43.26909 | 37246 ft | 529 kts | 44° |
| 2026-04-20 13:53 | 29.48503 | -43.21741 | 37264 ft | 529 kts | 44° |
| 2026-04-20 13:53 | 29.53498 | -43.15605 | 37249 ft | 529 kts | 44° |
| 2026-04-20 13:54 | 29.58523 | -43.09423 | 37250 ft | 529 kts | 44° |
| 2026-04-20 13:54 | 29.63543 | -43.03236 | 37249 ft | 529 kts | 44° |
| 2026-04-20 13:55 | 29.68556 | -42.97048 | 37270 ft | 528 kts | 44° |
| 2026-04-20 13:55 | 29.73560 | -42.90862 | 37270 ft | 528 kts | 44° |
| 2026-04-20 13:56 | 29.78553 | -42.84679 | 37267 ft | 526 kts | 45° |
| 2026-04-20 13:56 | 29.83519 | -42.78521 | 37270 ft | 524 kts | 45° |
| 2026-04-20 13:57 | 29.88469 | -42.72371 | 37263 ft | 523 kts | 45° |
| 2026-04-20 13:57 | 29.93411 | -42.66223 | 37264 ft | 523 kts | 45° |
| 2026-04-20 13:58 | 29.98352 | -42.60067 | 37269 ft | 523 kts | 45° |
| 2026-04-20 13:58 | 30.03281 | -42.53915 | 37272 ft | 522 kts | 45° |
| 2026-04-20 13:59 | 30.08209 | -42.47756 | 37269 ft | 521 kts | 45° |
| 2026-04-20 13:59 | 30.13126 | -42.41601 | 37275 ft | 521 kts | 45° |
| 2026-04-20 14:00 | 30.18007 | -42.35481 | 37283 ft | 520 kts | 45° |
| 2026-04-20 14:00 | 30.22892 | -42.29344 | 37280 ft | 517 kts | 45° |
| 2026-04-20 14:01 | 30.27764 | -42.23215 | 37277 ft | 517 kts | 45° |
| 2026-04-20 14:01 | 30.32632 | -42.17084 | 37278 ft | 516 kts | 45° |
| 2026-04-20 14:02 | 30.37476 | -42.10971 | 37282 ft | 514 kts | 45° |
| 2026-04-20 14:02 | 30.42309 | -42.04863 | 37282 ft | 514 kts | 45° |
| 2026-04-20 14:03 | 30.47133 | -41.98757 | 37285 ft | 514 kts | 45° |
| 2026-04-20 14:03 | 30.51950 | -41.92649 | 37287 ft | 513 kts | 45° |
| 2026-04-20 14:04 | 30.56756 | -41.86547 | 37287 ft | 512 kts | 45° |
| 2026-04-20 14:04 | 30.61559 | -41.80439 | 37290 ft | 512 kts | 45° |
| 2026-04-20 14:05 | 30.66360 | -41.74323 | 37287 ft | 511 kts | 46° |
| 2026-04-20 14:05 | 30.71110 | -41.68261 | 37292 ft | 510 kts | 46° |
| 2026-04-20 14:06 | 30.75879 | -41.62168 | 37289 ft | 510 kts | 46° |
| 2026-04-20 14:06 | 30.80648 | -41.56064 | 37292 ft | 510 kts | 46° |
| 2026-04-20 14:07 | 30.85405 | -41.49965 | 37292 ft | 508 kts | 46° |
| 2026-04-20 14:07 | 30.90142 | -41.43883 | 37292 ft | 507 kts | 46° |
| 2026-04-20 14:08 | 30.94879 | -41.37791 | 37292 ft | 507 kts | 46° |
| 2026-04-20 14:08 | 30.99613 | -41.31693 | 37302 ft | 507 kts | 46° |
| 2026-04-20 14:09 | 31.04331 | -41.25606 | 37298 ft | 505 kts | 46° |
| 2026-04-20 14:09 | 31.09037 | -41.19525 | 37297 ft | 504 kts | 46° |
| 2026-04-20 14:10 | 31.13735 | -41.13444 | 37299 ft | 504 kts | 46° |
| 2026-04-20 14:10 | 31.18435 | -41.07352 | 37301 ft | 504 kts | 46° |
| 2026-04-20 14:11 | 31.23099 | -41.01296 | 37300 ft | 504 kts | 46° |
| 2026-04-20 14:11 | 31.27789 | -40.95196 | 37301 ft | 505 kts | 46° |
| 2026-04-20 14:12 | 31.32477 | -40.89090 | 37301 ft | 504 kts | 46° |
| 2026-04-20 14:12 | 31.37165 | -40.82973 | 37303 ft | 504 kts | 46° |
| 2026-04-20 14:13 | 31.41841 | -40.76862 | 37303 ft | 504 kts | 46° |
| 2026-04-20 14:13 | 31.46514 | -40.70746 | 37303 ft | 503 kts | 46° |
| 2026-04-20 14:14 | 31.51175 | -40.64635 | 37307 ft | 502 kts | 46° |
| 2026-04-20 14:14 | 31.55822 | -40.58533 | 37309 ft | 502 kts | 46° |
| 2026-04-20 14:15 | 31.60473 | -40.52416 | 37312 ft | 502 kts | 46° |
| 2026-04-20 14:15 | 31.65118 | -40.46295 | 37315 ft | 502 kts | 46° |
| 2026-04-20 14:16 | 31.69718 | -40.40223 | 37314 ft | 501 kts | 46° |
| 2026-04-20 14:16 | 31.74357 | -40.34094 | 37314 ft | 501 kts | 46° |
| 2026-04-20 14:17 | 31.78981 | -40.27971 | 37316 ft | 501 kts | 46° |
| 2026-04-20 14:17 | 31.83601 | -40.21845 | 37317 ft | 500 kts | 46° |
| 2026-04-20 14:18 | 31.88207 | -40.15727 | 37314 ft | 498 kts | 46° |
| 2026-04-20 14:18 | 31.92796 | -40.09620 | 37316 ft | 497 kts | 46° |
| 2026-04-20 14:19 | 31.97375 | -40.03519 | 37315 ft | 498 kts | 46° |
| 2026-04-20 14:19 | 32.01918 | -39.97375 | 37320 ft | 497 kts | 49° |
| 2026-04-20 14:20 | 32.06086 | -39.90874 | 37324 ft | 497 kts | 52° |
| 2026-04-20 14:20 | 32.10151 | -39.84273 | 37321 ft | 497 kts | 51° |
| 2026-04-20 14:21 | 32.14262 | -39.77715 | 37326 ft | 497 kts | 51° |
| 2026-04-20 14:21 | 32.18402 | -39.71198 | 37325 ft | 496 kts | 51° |
| 2026-04-20 14:22 | 32.22546 | -39.64692 | 37325 ft | 496 kts | 51° |
| 2026-04-20 14:22 | 32.26685 | -39.58178 | 37330 ft | 496 kts | 51° |
| 2026-04-20 14:23 | 32.30792 | -39.51698 | 37328 ft | 495 kts | 51° |
| 2026-04-20 14:23 | 32.34919 | -39.45177 | 37332 ft | 494 kts | 51° |
| 2026-04-20 14:24 | 32.39031 | -39.38669 | 37325 ft | 494 kts | 51° |
| 2026-04-20 14:24 | 32.43135 | -39.32156 | 37331 ft | 492 kts | 51° |
| 2026-04-20 14:25 | 32.47217 | -39.25666 | 37331 ft | 491 kts | 51° |
| 2026-04-20 14:25 | 32.51297 | -39.19173 | 37334 ft | 491 kts | 51° |
| 2026-04-20 14:26 | 32.55372 | -39.12680 | 37333 ft | 491 kts | 51° |
| 2026-04-20 14:26 | 32.59437 | -39.06187 | 37334 ft | 490 kts | 51° |
| 2026-04-20 14:27 | 32.63491 | -38.99702 | 37334 ft | 489 kts | 51° |
| 2026-04-20 14:27 | 32.67513 | -38.93256 | 37338 ft | 489 kts | 51° |
| 2026-04-20 14:28 | 32.71558 | -38.86766 | 37339 ft | 489 kts | 51° |
| 2026-04-20 14:28 | 32.75599 | -38.80266 | 37339 ft | 489 kts | 51° |
| 2026-04-20 14:29 | 32.79639 | -38.73753 | 37340 ft | 489 kts | 52° |
| 2026-04-20 14:29 | 32.83673 | -38.67241 | 37342 ft | 489 kts | 52° |
| 2026-04-20 14:30 | 32.87698 | -38.60739 | 37351 ft | 486 kts | 52° |
| 2026-04-20 14:30 | 32.91699 | -38.54264 | 37349 ft | 485 kts | 52° |
| 2026-04-20 14:31 | 32.95689 | -38.47790 | 37332 ft | 485 kts | 52° |
| 2026-04-20 14:31 | 32.99681 | -38.41302 | 37332 ft | 485 kts | 52° |
| 2026-04-20 14:32 | 33.03621 | -38.34884 | 37336 ft | 482 kts | 53° |
| 2026-04-20 14:32 | 33.07571 | -38.28440 | 37339 ft | 481 kts | 52° |
| 2026-04-20 14:33 | 33.11518 | -38.21995 | 37339 ft | 481 kts | 53° |
| 2026-04-20 14:33 | 33.15459 | -38.15547 | 37345 ft | 480 kts | 53° |
| 2026-04-20 14:34 | 33.19373 | -38.09131 | 37346 ft | 478 kts | 52° |
| 2026-04-20 14:34 | 33.23287 | -38.02704 | 37344 ft | 478 kts | 52° |
| 2026-04-20 14:35 | 33.27192 | -37.96284 | 37346 ft | 477 kts | 53° |
| 2026-04-20 14:35 | 33.31079 | -37.89876 | 37345 ft | 474 kts | 52° |
| 2026-04-20 14:36 | 33.34939 | -37.83499 | 37347 ft | 473 kts | 52° |
| 2026-04-20 14:36 | 33.38791 | -37.77129 | 37349 ft | 473 kts | 52° |
| 2026-04-20 14:37 | 33.42642 | -37.70747 | 37353 ft | 473 kts | 52° |
| 2026-04-20 14:37 | 33.46494 | -37.64358 | 37347 ft | 473 kts | 52° |
| 2026-04-20 14:38 | 33.50345 | -37.57961 | 37347 ft | 473 kts | 52° |
| 2026-04-20 14:38 | 33.54190 | -37.51559 | 37346 ft | 473 kts | 52° |
| 2026-04-20 14:39 | 33.58006 | -37.45191 | 37349 ft | 473 kts | 52° |
| 2026-04-20 14:39 | 33.61848 | -37.38773 | 37344 ft | 473 kts | 52° |
| 2026-04-20 14:40 | 33.65684 | -37.32352 | 37347 ft | 473 kts | 52° |
| 2026-04-20 14:40 | 33.69519 | -37.25922 | 37346 ft | 473 kts | 52° |
| 2026-04-20 14:41 | 33.73352 | -37.19483 | 37347 ft | 473 kts | 52° |
| 2026-04-20 14:41 | 33.76528 | -37.14140 | 37346 ft | 473 kts | 52° |
| 2026-04-20 14:42 | 33.80343 | -37.07711 | 37345 ft | 473 kts | 52° |
| 2026-04-20 14:42 | 33.84158 | -37.01270 | 37346 ft | 473 kts | 52° |
| 2026-04-20 14:43 | 33.87967 | -36.94828 | 37350 ft | 471 kts | 52° |
| 2026-04-20 14:43 | 33.91755 | -36.88411 | 37344 ft | 470 kts | 52° |
| 2026-04-20 14:44 | 33.95539 | -36.81990 | 37353 ft | 470 kts | 52° |
| 2026-04-20 14:44 | 33.99319 | -36.75563 | 37349 ft | 470 kts | 52° |
| 2026-04-20 14:45 | 34.03093 | -36.69135 | 37349 ft | 469 kts | 52° |
| 2026-04-20 14:45 | 34.06864 | -36.62702 | 37348 ft | 469 kts | 52° |
| 2026-04-20 14:46 | 34.10606 | -36.56307 | 37348 ft | 469 kts | 52° |
| 2026-04-20 14:46 | 34.14367 | -36.49867 | 37345 ft | 469 kts | 52° |
| 2026-04-20 14:47 | 34.18122 | -36.43426 | 37348 ft | 469 kts | 52° |
| 2026-04-20 14:48 | 34.23755 | -36.33742 | 37345 ft | 469 kts | 52° |
| 2026-04-20 14:48 | 34.27502 | -36.27287 | 37347 ft | 469 kts | 52° |
| 2026-04-20 14:49 | 34.31247 | -36.20821 | 37344 ft | 469 kts | 52° |
| 2026-04-20 14:49 | 34.34989 | -36.14351 | 37347 ft | 469 kts | 52° |
| 2026-04-20 14:50 | 34.38723 | -36.07881 | 37353 ft | 469 kts | 52° |
| 2026-04-20 14:50 | 34.42454 | -36.01407 | 37344 ft | 469 kts | 52° |
| 2026-04-20 14:51 | 34.46182 | -35.94925 | 37352 ft | 469 kts | 52° |
| 2026-04-20 14:51 | 34.49882 | -35.88481 | 37341 ft | 469 kts | 52° |
| 2026-04-20 14:52 | 34.53601 | -35.81992 | 37338 ft | 469 kts | 52° |
| 2026-04-20 14:52 | 34.57317 | -35.75496 | 37349 ft | 469 kts | 52° |
| 2026-04-20 14:53 | 34.61027 | -35.68999 | 37343 ft | 468 kts | 52° |
| 2026-04-20 14:53 | 34.64734 | -35.62494 | 37347 ft | 468 kts | 52° |
| 2026-04-20 14:54 | 34.68440 | -35.55981 | 37347 ft | 468 kts | 52° |
| 2026-04-20 14:54 | 34.72140 | -35.49466 | 37359 ft | 468 kts | 52° |
| 2026-04-20 14:55 | 34.75836 | -35.42946 | 37346 ft | 468 kts | 52° |
| 2026-04-20 14:55 | 34.79527 | -35.36422 | 37346 ft | 468 kts | 52° |
| 2026-04-20 14:56 | 34.83212 | -35.29898 | 37348 ft | 468 kts | 52° |
| 2026-04-20 14:56 | 34.86872 | -35.23406 | 37353 ft | 468 kts | 52° |
| 2026-04-20 14:57 | 34.90548 | -35.16871 | 37344 ft | 467 kts | 52° |
| 2026-04-20 14:57 | 34.94218 | -35.10339 | 37341 ft | 467 kts | 52° |
| 2026-04-20 14:58 | 34.97878 | -35.03810 | 37341 ft | 467 kts | 52° |
| 2026-04-20 14:58 | 35.01568 | -34.97298 | 37349 ft | 465 kts | 49° |
| 2026-04-20 14:59 | 35.05545 | -34.91109 | 37339 ft | 462 kts | 47° |
| 2026-04-20 14:59 | 35.09598 | -34.85003 | 37344 ft | 463 kts | 47° |
| 2026-04-20 15:00 | 35.13602 | -34.78858 | 37340 ft | 463 kts | 48° |
| 2026-04-20 15:00 | 35.17579 | -34.72662 | 37348 ft | 463 kts | 48° |
| 2026-04-20 15:01 | 35.21533 | -34.66465 | 37337 ft | 462 kts | 48° |
| 2026-04-20 15:01 | 35.25481 | -34.60272 | 37336 ft | 462 kts | 48° |
| 2026-04-20 15:02 | 35.29404 | -34.54113 | 37336 ft | 462 kts | 48° |
| 2026-04-20 15:02 | 35.33349 | -34.47908 | 37333 ft | 462 kts | 48° |
| 2026-04-20 15:03 | 35.37284 | -34.41706 | 37333 ft | 461 kts | 47° |
| 2026-04-20 15:03 | 35.41218 | -34.35496 | 37332 ft | 461 kts | 47° |
| 2026-04-20 15:04 | 35.45142 | -34.29292 | 37330 ft | 461 kts | 48° |
| 2026-04-20 15:04 | 35.49065 | -34.23077 | 37330 ft | 461 kts | 48° |
| 2026-04-20 15:05 | 35.52983 | -34.16858 | 37326 ft | 460 kts | 47° |
| 2026-04-20 15:05 | 35.56890 | -34.10646 | 37321 ft | 460 kts | 47° |
| 2026-04-20 15:06 | 35.60794 | -34.04429 | 37317 ft | 460 kts | 47° |
| 2026-04-20 15:06 | 35.64699 | -33.98201 | 37327 ft | 460 kts | 47° |
| 2026-04-20 15:07 | 35.68600 | -33.91965 | 37319 ft | 460 kts | 47° |
| 2026-04-20 15:07 | 35.72499 | -33.85721 | 37324 ft | 460 kts | 47° |
| 2026-04-20 15:08 | 35.76394 | -33.79472 | 37327 ft | 460 kts | 47° |
| 2026-04-20 15:08 | 35.80285 | -33.73219 | 37325 ft | 460 kts | 47° |
| 2026-04-20 15:09 | 35.84171 | -33.66962 | 37327 ft | 460 kts | 47° |
| 2026-04-20 15:09 | 35.88028 | -33.60739 | 37323 ft | 459 kts | 47° |
| 2026-04-20 15:10 | 35.91929 | -33.54438 | 37314 ft | 459 kts | 47° |
| 2026-04-20 15:10 | 35.95779 | -33.48206 | 37319 ft | 459 kts | 47° |
| 2026-04-20 15:11 | 35.99649 | -33.41929 | 37339 ft | 459 kts | 47° |
| 2026-04-20 15:11 | 36.03513 | -33.35651 | 37315 ft | 459 kts | 47° |
| 2026-04-20 15:12 | 36.07372 | -33.29370 | 37313 ft | 459 kts | 47° |
| 2026-04-20 15:12 | 36.11227 | -33.23084 | 37317 ft | 459 kts | 47° |
| 2026-04-20 15:13 | 36.15078 | -33.16792 | 37314 ft | 459 kts | 47° |
| 2026-04-20 15:13 | 36.18923 | -33.10497 | 37322 ft | 458 kts | 47° |
| 2026-04-20 15:14 | 36.22762 | -33.04202 | 37310 ft | 458 kts | 47° |
| 2026-04-20 15:14 | 36.26569 | -32.97951 | 37313 ft | 458 kts | 47° |
| 2026-04-20 15:15 | 36.30400 | -32.91646 | 37310 ft | 458 kts | 47° |
| 2026-04-20 15:15 | 36.34227 | -32.85335 | 37308 ft | 457 kts | 46° |
| 2026-04-20 15:16 | 36.38044 | -32.79030 | 37302 ft | 457 kts | 46° |
| 2026-04-20 15:16 | 36.41859 | -32.72718 | 37298 ft | 457 kts | 47° |
| 2026-04-20 15:17 | 36.45671 | -32.66398 | 37301 ft | 457 kts | 47° |
| 2026-04-20 15:17 | 36.49480 | -32.60070 | 37311 ft | 457 kts | 46° |
| 2026-04-20 15:18 | 36.53281 | -32.53744 | 37301 ft | 457 kts | 46° |
| 2026-04-20 15:18 | 36.57083 | -32.47407 | 37294 ft | 457 kts | 46° |
| 2026-04-20 15:19 | 36.60878 | -32.41069 | 37297 ft | 457 kts | 46° |
| 2026-04-20 15:19 | 36.64672 | -32.34717 | 37324 ft | 457 kts | 46° |
| 2026-04-20 15:20 | 36.68441 | -32.28398 | 37292 ft | 457 kts | 46° |
| 2026-04-20 15:20 | 36.72224 | -32.22044 | 37292 ft | 456 kts | 46° |
| 2026-04-20 15:21 | 36.76002 | -32.15687 | 37284 ft | 456 kts | 46° |
| 2026-04-20 15:21 | 36.79782 | -32.09315 | 37287 ft | 457 kts | 46° |
| 2026-04-20 15:22 | 36.83552 | -32.02944 | 37286 ft | 456 kts | 46° |
| 2026-04-20 15:22 | 36.87324 | -31.96561 | 37285 ft | 457 kts | 46° |
| 2026-04-20 15:23 | 36.91091 | -31.90174 | 37281 ft | 457 kts | 46° |
| 2026-04-20 15:23 | 36.94855 | -31.83780 | 37278 ft | 457 kts | 46° |
| 2026-04-20 15:24 | 36.98616 | -31.77378 | 37282 ft | 456 kts | 45° |
| 2026-04-20 15:24 | 37.02374 | -31.70969 | 37276 ft | 457 kts | 45° |
| 2026-04-20 15:25 | 37.06127 | -31.64558 | 37276 ft | 457 kts | 45° |
| 2026-04-20 15:25 | 37.09883 | -31.58127 | 37271 ft | 457 kts | 45° |
| 2026-04-20 15:26 | 37.13633 | -31.51696 | 37301 ft | 457 kts | 45° |
| 2026-04-20 15:26 | 37.17382 | -31.45252 | 37267 ft | 457 kts | 45° |
| 2026-04-20 15:27 | 37.21125 | -31.38809 | 37266 ft | 457 kts | 45° |
| 2026-04-20 15:27 | 37.24866 | -31.32356 | 37265 ft | 457 kts | 45° |
| 2026-04-20 15:28 | 37.28604 | -31.25896 | 37262 ft | 457 kts | 45° |
| 2026-04-20 15:28 | 37.31709 | -31.20518 | 37262 ft | 457 kts | 45° |
| 2026-04-20 15:29 | 37.35438 | -31.14050 | 37260 ft | 457 kts | 45° |
| 2026-04-20 15:29 | 37.39773 | -31.06514 | 37260 ft | 457 kts | 45° |
| 2026-04-20 15:30 | 37.42898 | -31.01073 | 37255 ft | 458 kts | 45° |
| 2026-04-20 15:30 | 37.46601 | -30.94611 | 37266 ft | 458 kts | 45° |
| 2026-04-20 15:31 | 37.50325 | -30.88102 | 37256 ft | 458 kts | 45° |
| 2026-04-20 15:31 | 37.54047 | -30.81584 | 37249 ft | 458 kts | 45° |
| 2026-04-20 15:32 | 37.57768 | -30.75054 | 37246 ft | 458 kts | 45° |
| 2026-04-20 15:32 | 37.61487 | -30.68514 | 37247 ft | 458 kts | 45° |
| 2026-04-20 15:33 | 37.65198 | -30.61974 | 37253 ft | 459 kts | 45° |
| 2026-04-20 15:33 | 37.68910 | -30.55422 | 37242 ft | 459 kts | 45° |
| 2026-04-20 15:34 | 37.72616 | -30.48867 | 37239 ft | 459 kts | 45° |
| 2026-04-20 15:34 | 37.76322 | -30.42298 | 37236 ft | 459 kts | 45° |
| 2026-04-20 15:35 | 37.80022 | -30.35727 | 37242 ft | 459 kts | 45° |
| 2026-04-20 15:35 | 37.83717 | -30.29152 | 37235 ft | 459 kts | 45° |
| 2026-04-20 15:36 | 37.87408 | -30.22570 | 37244 ft | 459 kts | 45° |
| 2026-04-20 15:36 | 37.91103 | -30.15970 | 37228 ft | 460 kts | 45° |
| 2026-04-20 15:37 | 37.94801 | -30.09352 | 37234 ft | 460 kts | 45° |
| 2026-04-20 15:37 | 37.98491 | -30.02731 | 37222 ft | 460 kts | 45° |
| 2026-04-20 15:38 | 38.02087 | -29.96066 | 37221 ft | 464 kts | 48° |
| 2026-04-20 15:38 | 38.05361 | -29.88956 | 37218 ft | 468 kts | 50° |
| 2026-04-20 15:39 | 38.08572 | -29.81780 | 37248 ft | 468 kts | 50° |
| 2026-04-20 15:39 | 38.11837 | -29.74644 | 37217 ft | 467 kts | 49° |
| 2026-04-20 15:40 | 38.15127 | -29.67545 | 37216 ft | 466 kts | 49° |
| 2026-04-20 15:40 | 38.18421 | -29.60446 | 37212 ft | 466 kts | 49° |
| 2026-04-20 15:41 | 38.21712 | -29.53335 | 37240 ft | 467 kts | 49° |
| 2026-04-20 15:41 | 38.24997 | -29.46213 | 37205 ft | 467 kts | 49° |
| 2026-04-20 15:42 | 38.28278 | -29.39082 | 37201 ft | 467 kts | 49° |
| 2026-04-20 15:42 | 38.31561 | -29.31932 | 37200 ft | 467 kts | 49° |
| 2026-04-20 15:43 | 38.34837 | -29.24781 | 37255 ft | 468 kts | 49° |
| 2026-04-20 15:43 | 38.38114 | -29.17612 | 37196 ft | 469 kts | 49° |
| 2026-04-20 15:44 | 38.41393 | -29.10423 | 37197 ft | 469 kts | 49° |
| 2026-04-20 15:44 | 38.44666 | -29.03229 | 37198 ft | 469 kts | 49° |
| 2026-04-20 15:45 | 38.47936 | -28.96026 | 37195 ft | 469 kts | 49° |
| 2026-04-20 15:45 | 38.51207 | -28.88806 | 37184 ft | 470 kts | 49° |
| 2026-04-20 15:46 | 38.54456 | -28.81619 | 37185 ft | 471 kts | 49° |
| 2026-04-20 15:46 | 38.57731 | -28.74353 | 37185 ft | 471 kts | 49° |
| 2026-04-20 15:47 | 38.60994 | -28.67100 | 37185 ft | 471 kts | 49° |
| 2026-04-20 15:47 | 38.64259 | -28.59831 | 37182 ft | 472 kts | 49° |
| 2026-04-20 15:48 | 38.67528 | -28.52536 | 37176 ft | 473 kts | 49° |
| 2026-04-20 15:48 | 38.70793 | -28.45227 | 37175 ft | 473 kts | 49° |
| 2026-04-20 15:49 | 38.74053 | -28.37913 | 37170 ft | 473 kts | 49° |
| 2026-04-20 15:49 | 38.77310 | -28.30588 | 37165 ft | 473 kts | 49° |
| 2026-04-20 15:50 | 38.80562 | -28.23260 | 37165 ft | 473 kts | 49° |
| 2026-04-20 15:50 | 38.83810 | -28.15924 | 37165 ft | 473 kts | 49° |
| 2026-04-20 15:51 | 38.87050 | -28.08585 | 37174 ft | 473 kts | 49° |
| 2026-04-20 15:51 | 38.90298 | -28.01220 | 37159 ft | 475 kts | 49° |
| 2026-04-20 15:52 | 38.93547 | -27.93833 | 37156 ft | 476 kts | 49° |
| 2026-04-20 15:52 | 38.96793 | -27.86427 | 37154 ft | 476 kts | 49° |
| 2026-04-20 15:53 | 39.01637 | -27.75349 | 37168 ft | 476 kts | 50° |
| 2026-04-20 15:53 | 39.04888 | -27.67899 | 37145 ft | 479 kts | 50° |
| 2026-04-20 15:54 | 39.08148 | -27.60405 | 37142 ft | 480 kts | 50° |
| 2026-04-20 15:54 | 39.11402 | -27.52902 | 37142 ft | 480 kts | 50° |
| 2026-04-20 15:55 | 39.14652 | -27.45392 | 37163 ft | 480 kts | 50° |
| 2026-04-20 15:55 | 39.17914 | -27.37844 | 37138 ft | 484 kts | 50° |
| 2026-04-20 15:56 | 39.21182 | -27.30259 | 37137 ft | 484 kts | 50° |
| 2026-04-20 15:56 | 39.24448 | -27.22656 | 37116 ft | 484 kts | 50° |
| 2026-04-20 15:57 | 39.27704 | -27.15058 | 37141 ft | 485 kts | 51° |
| 2026-04-20 15:57 | 39.30980 | -27.07405 | 37130 ft | 488 kts | 51° |
| 2026-04-20 15:58 | 39.34259 | -26.99720 | 37125 ft | 489 kts | 51° |
| 2026-04-20 15:58 | 39.37540 | -26.92004 | 37123 ft | 490 kts | 51° |
| 2026-04-20 15:59 | 39.40804 | -26.84315 | 37118 ft | 491 kts | 51° |
| 2026-04-20 15:59 | 39.44099 | -26.76536 | 37119 ft | 494 kts | 51° |
| 2026-04-20 16:00 | 39.47396 | -26.68724 | 37118 ft | 494 kts | 51° |
| 2026-04-20 16:00 | 39.50689 | -26.60903 | 37116 ft | 495 kts | 51° |
| 2026-04-20 16:01 | 39.53979 | -26.53073 | 37120 ft | 495 kts | 52° |
| 2026-04-20 16:01 | 39.57280 | -26.45207 | 37111 ft | 497 kts | 52° |
| 2026-04-20 16:02 | 39.60580 | -26.37313 | 37100 ft | 498 kts | 52° |
| 2026-04-20 16:02 | 39.63851 | -26.29464 | 37105 ft | 498 kts | 52° |
| 2026-04-20 16:03 | 39.67140 | -26.21559 | 37108 ft | 499 kts | 52° |
| 2026-04-20 16:03 | 39.70446 | -26.13593 | 37102 ft | 501 kts | 52° |
| 2026-04-20 16:04 | 39.73743 | -26.05621 | 37099 ft | 501 kts | 52° |
| 2026-04-20 16:04 | 39.77034 | -25.97642 | 37097 ft | 501 kts | 53° |
| 2026-04-20 16:05 | 39.80323 | -25.89654 | 37098 ft | 503 kts | 53° |
| 2026-04-20 16:05 | 39.83625 | -25.81614 | 37092 ft | 504 kts | 53° |
| 2026-04-20 16:06 | 39.86922 | -25.73559 | 37089 ft | 504 kts | 53° |
| 2026-04-20 16:06 | 39.90214 | -25.65496 | 37089 ft | 504 kts | 53° |
| 2026-04-20 16:07 | 39.93506 | -25.57415 | 37091 ft | 506 kts | 54° |
| 2026-04-20 16:07 | 39.96807 | -25.49292 | 37077 ft | 507 kts | 54° |
| 2026-04-20 16:08 | 40.00080 | -25.41209 | 37077 ft | 507 kts | 54° |
| 2026-04-20 16:08 | 40.03369 | -25.33065 | 37078 ft | 507 kts | 54° |
| 2026-04-20 16:09 | 40.06652 | -25.24916 | 37073 ft | 507 kts | 54° |
| 2026-04-20 16:09 | 40.09931 | -25.16757 | 37073 ft | 508 kts | 54° |
| 2026-04-20 16:10 | 40.13208 | -25.08580 | 37071 ft | 508 kts | 54° |
| 2026-04-20 16:10 | 40.16479 | -25.00398 | 37103 ft | 508 kts | 55° |
| 2026-04-20 16:11 | 40.19753 | -24.92188 | 37070 ft | 510 kts | 55° |
| 2026-04-20 16:11 | 40.23026 | -24.83952 | 37069 ft | 510 kts | 55° |
| 2026-04-20 16:12 | 40.26291 | -24.75710 | 37062 ft | 510 kts | 55° |
| 2026-04-20 16:12 | 40.29554 | -24.67457 | 37087 ft | 511 kts | 56° |
| 2026-04-20 16:13 | 40.32818 | -24.59183 | 37059 ft | 512 kts | 56° |
| 2026-04-20 16:13 | 40.36077 | -24.50888 | 37053 ft | 512 kts | 56° |
| 2026-04-20 16:14 | 40.39331 | -24.42586 | 37058 ft | 512 kts | 56° |
| 2026-04-20 16:14 | 40.42579 | -24.34275 | 37058 ft | 512 kts | 57° |
| 2026-04-20 16:15 | 40.45828 | -24.25940 | 37051 ft | 513 kts | 57° |
| 2026-04-20 16:15 | 40.49074 | -24.17592 | 37050 ft | 513 kts | 57° |
| 2026-04-20 16:16 | 40.52312 | -24.09240 | 37044 ft | 513 kts | 57° |
| 2026-04-20 16:16 | 40.55526 | -24.00927 | 37045 ft | 514 kts | 58° |
| 2026-04-20 16:17 | 40.58763 | -23.92530 | 37042 ft | 515 kts | 58° |
| 2026-04-20 16:17 | 40.61996 | -23.84115 | 37042 ft | 515 kts | 58° |
| 2026-04-20 16:18 | 40.64699 | -23.77063 | 37042 ft | 515 kts | 58° |
| 2026-04-20 16:18 | 40.67929 | -23.68620 | 37040 ft | 517 kts | 59° |
| 2026-04-20 16:19 | 40.71162 | -23.60141 | 37037 ft | 518 kts | 59° |
| 2026-04-20 16:19 | 40.74376 | -23.51684 | 37037 ft | 518 kts | 59° |
| 2026-04-20 16:20 | 40.77599 | -23.43178 | 37034 ft | 518 kts | 59° |
| 2026-04-20 16:20 | 40.80820 | -23.34660 | 37029 ft | 520 kts | 60° |
| 2026-04-20 16:21 | 40.84040 | -23.26115 | 37029 ft | 520 kts | 60° |
| 2026-04-20 16:21 | 40.87255 | -23.17555 | 37026 ft | 520 kts | 60° |
| 2026-04-20 16:22 | 40.90465 | -23.08989 | 37033 ft | 520 kts | 61° |
| 2026-04-20 16:22 | 40.93672 | -23.00406 | 37026 ft | 521 kts | 61° |
| 2026-04-20 16:23 | 40.96872 | -22.91811 | 37026 ft | 521 kts | 62° |
| 2026-04-20 16:23 | 41.00065 | -22.83209 | 37020 ft | 521 kts | 62° |
| 2026-04-20 16:24 | 41.03259 | -22.74584 | 37021 ft | 521 kts | 62° |
| 2026-04-20 16:24 | 41.06448 | -22.65945 | 37018 ft | 522 kts | 62° |
| 2026-04-20 16:25 | 41.09634 | -22.57288 | 37012 ft | 522 kts | 62° |
| 2026-04-20 16:25 | 41.12795 | -22.48671 | 37013 ft | 522 kts | 63° |
| 2026-04-20 16:26 | 41.15970 | -22.39996 | 37010 ft | 524 kts | 63° |
| 2026-04-20 16:26 | 41.19147 | -22.31284 | 37007 ft | 525 kts | 63° |
| 2026-04-20 16:27 | 41.22318 | -22.22559 | 37007 ft | 525 kts | 63° |
| 2026-04-20 16:27 | 41.25485 | -22.13824 | 37011 ft | 524 kts | 64° |
| 2026-04-20 16:28 | 41.28644 | -22.05083 | 37011 ft | 524 kts | 64° |
| 2026-04-20 16:28 | 41.31793 | -21.96341 | 36996 ft | 524 kts | 64° |
| 2026-04-20 16:29 | 41.34935 | -21.87591 | 36991 ft | 524 kts | 64° |
| 2026-04-20 16:29 | 41.38071 | -21.78835 | 36999 ft | 524 kts | 64° |
| 2026-04-20 16:30 | 41.41197 | -21.70080 | 36998 ft | 523 kts | 64° |
| 2026-04-20 16:30 | 41.44312 | -21.61324 | 36996 ft | 523 kts | 64° |
| 2026-04-20 16:31 | 41.47421 | -21.52561 | 36991 ft | 523 kts | 65° |
| 2026-04-20 16:31 | 41.50523 | -21.43791 | 36990 ft | 523 kts | 65° |
| 2026-04-20 16:32 | 41.53621 | -21.35004 | 36988 ft | 523 kts | 65° |
| 2026-04-20 16:32 | 41.56713 | -21.26207 | 36985 ft | 523 kts | 65° |
| 2026-04-20 16:33 | 41.59780 | -21.17453 | 36982 ft | 523 kts | 65° |
| 2026-04-20 16:33 | 41.62859 | -21.08639 | 36979 ft | 524 kts | 66° |
| 2026-04-20 16:34 | 41.65935 | -20.99804 | 36976 ft | 524 kts | 66° |
| 2026-04-20 16:34 | 41.69005 | -20.90957 | 36985 ft | 524 kts | 66° |
| 2026-04-20 16:35 | 41.72064 | -20.82116 | 36975 ft | 524 kts | 66° |
| 2026-04-20 16:35 | 41.75121 | -20.73258 | 36971 ft | 524 kts | 67° |
| 2026-04-20 16:36 | 41.78170 | -20.64386 | 36972 ft | 524 kts | 67° |
| 2026-04-20 16:36 | 41.81211 | -20.55509 | 36965 ft | 524 kts | 67° |
| 2026-04-20 16:37 | 41.84245 | -20.46628 | 36946 ft | 524 kts | 68° |
| 2026-04-20 16:37 | 41.87276 | -20.37728 | 36963 ft | 524 kts | 68° |
| 2026-04-20 16:38 | 41.90272 | -20.28896 | 36958 ft | 524 kts | 68° |
| 2026-04-20 16:38 | 41.93284 | -20.19994 | 36958 ft | 523 kts | 68° |
| 2026-04-20 16:39 | 41.96286 | -20.11092 | 36948 ft | 523 kts | 69° |
| 2026-04-20 16:39 | 41.99302 | -20.02182 | 37088 ft | 524 kts | 66° |
| 2026-04-20 16:40 | 42.01096 | -19.97907 | 37424 ft | 524 kts | 60° |
| 2026-04-20 16:40 | 42.03011 | -19.93755 | 37778 ft | 522 kts | 59° |
| 2026-04-20 16:40 | 42.04961 | -19.89633 | 38070 ft | 521 kts | 59° |
| 2026-04-20 16:40 | 42.06927 | -19.85535 | 38330 ft | 521 kts | 58° |
| 2026-04-20 16:41 | 42.08898 | -19.81443 | 38593 ft | 520 kts | 58° |
| 2026-04-20 16:41 | 42.10862 | -19.77365 | 38794 ft | 520 kts | 58° |
| 2026-04-20 16:41 | 42.12829 | -19.73269 | 38918 ft | 521 kts | 59° |
| 2026-04-20 16:41 | 42.14796 | -19.69157 | 38944 ft | 524 kts | 59° |
| 2026-04-20 16:42 | 42.18737 | -19.60887 | 38944 ft | 524 kts | 59° |
| 2026-04-20 16:42 | 42.22663 | -19.52617 | 38941 ft | 523 kts | 59° |
| 2026-04-20 16:43 | 42.26582 | -19.44341 | 38935 ft | 523 kts | 59° |
| 2026-04-20 16:43 | 42.30499 | -19.36045 | 38939 ft | 524 kts | 59° |
| 2026-04-20 16:44 | 42.34411 | -19.27740 | 38939 ft | 524 kts | 59° |
| 2026-04-20 16:44 | 42.38314 | -19.19429 | 38937 ft | 523 kts | 59° |
| 2026-04-20 16:45 | 42.42210 | -19.11112 | 38916 ft | 523 kts | 60° |
| 2026-04-20 16:45 | 42.46102 | -19.02779 | 38929 ft | 524 kts | 60° |
| 2026-04-20 16:46 | 42.49986 | -18.94437 | 38929 ft | 524 kts | 60° |
| 2026-04-20 16:46 | 42.53868 | -18.86079 | 38928 ft | 524 kts | 60° |
| 2026-04-20 16:47 | 42.57716 | -18.77770 | 38925 ft | 524 kts | 60° |
| 2026-04-20 16:47 | 42.61583 | -18.69397 | 38921 ft | 524 kts | 60° |
| 2026-04-20 16:48 | 42.65446 | -18.61008 | 38925 ft | 523 kts | 60° |
| 2026-04-20 16:48 | 42.69298 | -18.52620 | 38924 ft | 523 kts | 60° |
| 2026-04-20 16:49 | 42.73146 | -18.44218 | 38918 ft | 523 kts | 60° |
| 2026-04-20 16:49 | 42.76985 | -18.35812 | 38924 ft | 523 kts | 61° |
| 2026-04-20 16:50 | 42.80813 | -18.27403 | 38925 ft | 523 kts | 61° |
| 2026-04-20 16:50 | 42.84640 | -18.18974 | 38925 ft | 523 kts | 61° |
| 2026-04-20 16:51 | 42.88461 | -18.10534 | 38919 ft | 523 kts | 61° |
| 2026-04-20 16:51 | 42.92269 | -18.02099 | 38917 ft | 522 kts | 61° |
| 2026-04-20 16:52 | 42.96072 | -17.93651 | 38922 ft | 522 kts | 61° |
| 2026-04-20 16:52 | 42.99871 | -17.85187 | 38920 ft | 522 kts | 61° |
| 2026-04-20 16:53 | 43.03662 | -17.76717 | 38919 ft | 522 kts | 62° |
| 2026-04-20 16:53 | 43.07447 | -17.68238 | 38914 ft | 522 kts | 62° |
| 2026-04-20 16:54 | 43.11219 | -17.59761 | 38915 ft | 521 kts | 62° |
| 2026-04-20 16:54 | 43.14986 | -17.51270 | 38917 ft | 521 kts | 62° |
| 2026-04-20 16:55 | 43.18743 | -17.42778 | 38915 ft | 521 kts | 62° |
| 2026-04-20 16:55 | 43.22491 | -17.34281 | 38920 ft | 521 kts | 62° |
| 2026-04-20 16:56 | 43.26236 | -17.25769 | 38911 ft | 521 kts | 62° |
| 2026-04-20 16:56 | 43.29948 | -17.17304 | 38911 ft | 521 kts | 62° |
| 2026-04-20 16:57 | 43.33674 | -17.08784 | 38912 ft | 520 kts | 62° |
| 2026-04-20 16:57 | 43.37394 | -17.00253 | 38908 ft | 520 kts | 62° |
| 2026-04-20 16:58 | 43.41103 | -16.91720 | 38909 ft | 520 kts | 62° |
| 2026-04-20 16:58 | 43.44807 | -16.83174 | 38906 ft | 520 kts | 63° |
| 2026-04-20 16:59 | 43.48501 | -16.74627 | 38900 ft | 520 kts | 63° |
| 2026-04-20 16:59 | 43.52191 | -16.66067 | 38895 ft | 520 kts | 63° |
| 2026-04-20 17:00 | 43.57689 | -16.53260 | 38900 ft | 520 kts | 63° |
| 2026-04-20 17:01 | 43.61363 | -16.44672 | 38896 ft | 520 kts | 63° |
| 2026-04-20 17:01 | 43.65053 | -16.36019 | 38897 ft | 519 kts | 63° |
| 2026-04-20 17:02 | 43.68683 | -16.27485 | 38891 ft | 518 kts | 63° |
| 2026-04-20 17:02 | 43.72323 | -16.18901 | 38889 ft | 517 kts | 63° |
| 2026-04-20 17:03 | 43.75952 | -16.10312 | 38891 ft | 517 kts | 64° |
| 2026-04-20 17:03 | 43.79573 | -16.01720 | 38884 ft | 517 kts | 64° |
| 2026-04-20 17:04 | 43.83182 | -15.93130 | 38883 ft | 515 kts | 63° |
| 2026-04-20 17:04 | 43.86168 | -15.86005 | 38881 ft | 514 kts | 64° |
| 2026-04-20 17:05 | 43.89749 | -15.77434 | 38880 ft | 514 kts | 64° |
| 2026-04-20 17:05 | 43.93318 | -15.68869 | 38875 ft | 511 kts | 64° |
| 2026-04-20 17:06 | 43.96866 | -15.60326 | 38877 ft | 510 kts | 64° |
| 2026-04-20 17:06 | 44.00403 | -15.51787 | 38874 ft | 510 kts | 64° |
| 2026-04-20 17:07 | 44.03933 | -15.43237 | 38874 ft | 509 kts | 64° |
| 2026-04-20 17:07 | 44.07426 | -15.34751 | 38878 ft | 509 kts | 64° |
| 2026-04-20 17:08 | 44.10963 | -15.26134 | 38874 ft | 509 kts | 64° |
| 2026-04-20 17:08 | 44.14445 | -15.17624 | 38877 ft | 509 kts | 64° |
| 2026-04-20 17:09 | 44.17947 | -15.09041 | 38876 ft | 509 kts | 64° |
| 2026-04-20 17:09 | 44.21439 | -15.00456 | 38864 ft | 509 kts | 64° |
| 2026-04-20 17:10 | 44.24922 | -14.91867 | 38876 ft | 509 kts | 64° |
| 2026-04-20 17:10 | 44.28400 | -14.83264 | 38878 ft | 509 kts | 64° |
| 2026-04-20 17:11 | 44.31873 | -14.74648 | 38883 ft | 509 kts | 64° |
| 2026-04-20 17:11 | 44.35334 | -14.66033 | 38883 ft | 509 kts | 64° |
| 2026-04-20 17:12 | 44.38797 | -14.57389 | 38885 ft | 509 kts | 64° |
| 2026-04-20 17:12 | 44.42249 | -14.48745 | 38885 ft | 509 kts | 64° |
| 2026-04-20 17:13 | 44.45699 | -14.40082 | 38888 ft | 509 kts | 64° |
| 2026-04-20 17:13 | 44.49142 | -14.31407 | 38893 ft | 509 kts | 64° |
| 2026-04-20 17:14 | 44.52572 | -14.22740 | 38891 ft | 508 kts | 64° |
| 2026-04-20 17:14 | 44.55995 | -14.14063 | 38894 ft | 508 kts | 64° |
| 2026-04-20 17:15 | 44.59386 | -14.05439 | 38875 ft | 508 kts | 64° |
| 2026-04-20 17:15 | 44.62800 | -13.96731 | 38900 ft | 510 kts | 64° |
| 2026-04-20 17:16 | 44.66216 | -13.87990 | 38902 ft | 510 kts | 64° |
| 2026-04-20 17:16 | 44.69625 | -13.79243 | 38900 ft | 510 kts | 64° |
| 2026-04-20 17:17 | 44.73028 | -13.70478 | 38893 ft | 511 kts | 64° |
| 2026-04-20 17:17 | 44.76432 | -13.61686 | 38908 ft | 512 kts | 64° |
| 2026-04-20 17:18 | 44.79828 | -13.52889 | 38903 ft | 511 kts | 64° |
| 2026-04-20 17:18 | 44.83217 | -13.44081 | 38903 ft | 511 kts | 64° |
| 2026-04-20 17:19 | 44.86599 | -13.35260 | 38899 ft | 512 kts | 64° |
| 2026-04-20 17:19 | 44.89982 | -13.26410 | 38907 ft | 512 kts | 64° |
| 2026-04-20 17:20 | 44.93361 | -13.17545 | 38909 ft | 513 kts | 64° |
| 2026-04-20 17:20 | 44.96729 | -13.08679 | 38907 ft | 513 kts | 65° |
| 2026-04-20 17:21 | 45.00069 | -12.99858 | 38915 ft | 513 kts | 65° |
| 2026-04-20 17:21 | 45.03462 | -12.90917 | 38914 ft | 513 kts | 64° |
| 2026-04-20 17:22 | 45.06816 | -12.82094 | 38918 ft | 512 kts | 64° |
| 2026-04-20 17:22 | 45.10186 | -12.73198 | 38904 ft | 512 kts | 64° |
| 2026-04-20 17:23 | 45.13551 | -12.64277 | 38912 ft | 514 kts | 64° |
| 2026-04-20 17:23 | 45.16912 | -12.55337 | 38914 ft | 514 kts | 64° |
| 2026-04-20 17:24 | 45.20264 | -12.46389 | 38919 ft | 514 kts | 64° |
| 2026-04-20 17:24 | 45.23610 | -12.37429 | 38908 ft | 514 kts | 64° |
| 2026-04-20 17:25 | 45.26950 | -12.28456 | 38916 ft | 514 kts | 64° |
| 2026-04-20 17:25 | 45.30280 | -12.19479 | 38916 ft | 514 kts | 64° |
| 2026-04-20 17:26 | 45.33586 | -12.10539 | 38921 ft | 514 kts | 65° |
| 2026-04-20 17:26 | 45.36904 | -12.01537 | 38917 ft | 514 kts | 65° |
| 2026-04-20 17:27 | 45.40215 | -11.92524 | 38915 ft | 514 kts | 65° |
| 2026-04-20 17:27 | 45.43517 | -11.83503 | 38917 ft | 514 kts | 65° |
| 2026-04-20 17:28 | 45.46816 | -11.74463 | 38916 ft | 514 kts | 65° |
| 2026-04-20 17:28 | 45.50107 | -11.65412 | 38912 ft | 515 kts | 65° |
| 2026-04-20 17:29 | 45.53402 | -11.56323 | 38914 ft | 516 kts | 65° |
| 2026-04-20 17:29 | 45.56692 | -11.47217 | 38916 ft | 516 kts | 65° |
| 2026-04-20 17:30 | 45.59970 | -11.38114 | 38909 ft | 516 kts | 65° |
| 2026-04-20 17:30 | 45.63235 | -11.29013 | 38922 ft | 514 kts | 65° |
| 2026-04-20 17:31 | 45.66488 | -11.19919 | 38921 ft | 513 kts | 65° |
| 2026-04-20 17:31 | 45.69729 | -11.10825 | 38928 ft | 513 kts | 65° |
| 2026-04-20 17:32 | 45.72962 | -11.01721 | 38922 ft | 513 kts | 64° |
| 2026-04-20 17:32 | 45.76192 | -10.92598 | 38928 ft | 513 kts | 65° |
| 2026-04-20 17:33 | 45.79391 | -10.83530 | 38933 ft | 513 kts | 65° |
| 2026-04-20 17:33 | 45.82605 | -10.74390 | 38938 ft | 514 kts | 65° |
| 2026-04-20 17:34 | 45.85814 | -10.65231 | 38934 ft | 514 kts | 65° |
| 2026-04-20 17:34 | 45.89013 | -10.56067 | 38943 ft | 513 kts | 64° |
| 2026-04-20 17:35 | 45.92196 | -10.46922 | 38942 ft | 512 kts | 64° |
| 2026-04-20 17:35 | 45.95370 | -10.37772 | 38944 ft | 512 kts | 65° |
| 2026-04-20 17:36 | 45.98539 | -10.28600 | 38948 ft | 512 kts | 64° |
| 2026-04-20 17:36 | 46.01699 | -10.19428 | 38949 ft | 512 kts | 64° |
| 2026-04-20 17:37 | 46.04850 | -10.10247 | 38954 ft | 512 kts | 65° |
| 2026-04-20 17:37 | 46.07997 | -10.01045 | 38955 ft | 512 kts | 65° |
| 2026-04-20 17:38 | 46.11133 | -9.91845 | 38952 ft | 512 kts | 64° |
| 2026-04-20 17:38 | 46.14264 | -9.82625 | 38961 ft | 512 kts | 64° |
| 2026-04-20 17:39 | 46.17380 | -9.73418 | 38963 ft | 509 kts | 64° |
| 2026-04-20 17:39 | 46.20479 | -9.64230 | 38963 ft | 509 kts | 65° |
| 2026-04-20 17:40 | 46.23567 | -9.55040 | 38965 ft | 508 kts | 64° |
| 2026-04-20 17:40 | 46.26625 | -9.45912 | 38974 ft | 508 kts | 64° |
| 2026-04-20 17:41 | 46.29696 | -9.36711 | 38970 ft | 508 kts | 64° |
| 2026-04-20 17:41 | 46.32757 | -9.27506 | 38977 ft | 508 kts | 65° |
| 2026-04-20 17:42 | 46.35811 | -9.18290 | 38976 ft | 507 kts | 65° |
| 2026-04-20 17:42 | 46.38851 | -9.09084 | 38982 ft | 506 kts | 65° |
| 2026-04-20 17:43 | 46.41884 | -8.99869 | 38985 ft | 506 kts | 65° |
| 2026-04-20 17:43 | 46.44906 | -8.90653 | 38985 ft | 506 kts | 65° |
| 2026-04-20 17:44 | 46.47914 | -8.81405 | 38984 ft | 506 kts | 66° |
| 2026-04-20 17:44 | 46.49817 | -8.71634 | 38995 ft | 503 kts | 85° |
| 2026-04-20 17:45 | 46.50126 | -8.61511 | 38990 ft | 503 kts | 91° |
| 2026-04-20 17:45 | 46.50125 | -8.51367 | 38998 ft | 503 kts | 92° |
| 2026-04-20 17:46 | 46.50085 | -8.41224 | 38997 ft | 503 kts | 91° |
| 2026-04-20 17:46 | 46.50065 | -8.31138 | 39001 ft | 502 kts | 91° |
| 2026-04-20 17:47 | 46.50053 | -8.21000 | 38998 ft | 502 kts | 91° |
| 2026-04-20 17:47 | 46.50036 | -8.10861 | 38999 ft | 502 kts | 91° |
| 2026-04-20 17:48 | 46.50156 | -8.00713 | 39007 ft | 505 kts | 85° |
| 2026-04-20 17:48 | 46.51378 | -7.90670 | 39011 ft | 506 kts | 79° |
| 2026-04-20 17:49 | 46.52865 | -7.80690 | 39011 ft | 506 kts | 78° |
| 2026-04-20 17:49 | 46.54386 | -7.70703 | 39010 ft | 506 kts | 78° |
| 2026-04-20 17:50 | 46.55881 | -7.60716 | 39009 ft | 507 kts | 78° |
| 2026-04-20 17:50 | 46.57358 | -7.50693 | 39021 ft | 507 kts | 78° |
| 2026-04-20 17:51 | 46.58822 | -7.40668 | 39020 ft | 507 kts | 78° |
| 2026-04-20 17:51 | 46.60277 | -7.30636 | 39021 ft | 507 kts | 78° |
| 2026-04-20 17:52 | 46.61725 | -7.20596 | 39026 ft | 508 kts | 78° |
| 2026-04-20 17:52 | 46.62924 | -7.12232 | 39029 ft | 508 kts | 78° |
| 2026-04-20 17:53 | 46.64359 | -7.02163 | 39029 ft | 508 kts | 78° |
| 2026-04-20 17:53 | 46.65785 | -6.92088 | 39031 ft | 508 kts | 78° |
| 2026-04-20 17:54 | 46.67202 | -6.82010 | 39031 ft | 508 kts | 78° |
| 2026-04-20 17:54 | 46.68611 | -6.71923 | 39032 ft | 508 kts | 78° |
| 2026-04-20 17:55 | 46.70012 | -6.61820 | 39034 ft | 508 kts | 79° |
| 2026-04-20 17:55 | 46.71402 | -6.51728 | 39034 ft | 508 kts | 79° |
| 2026-04-20 17:56 | 46.72785 | -6.41617 | 39037 ft | 509 kts | 79° |
| 2026-04-20 17:56 | 46.74161 | -6.31488 | 39037 ft | 509 kts | 79° |
| 2026-04-20 17:57 | 46.75519 | -6.21425 | 39037 ft | 509 kts | 79° |
| 2026-04-20 17:57 | 46.76884 | -6.11227 | 39037 ft | 509 kts | 79° |
| 2026-04-20 17:58 | 46.78233 | -6.01083 | 39039 ft | 510 kts | 79° |
| 2026-04-20 17:58 | 46.79566 | -5.90990 | 39040 ft | 510 kts | 79° |
| 2026-04-20 17:59 | 46.80899 | -5.80820 | 39037 ft | 510 kts | 79° |
| 2026-04-20 17:59 | 46.82224 | -5.70642 | 39036 ft | 510 kts | 79° |
| 2026-04-20 18:00 | 46.83539 | -5.60457 | 39039 ft | 511 kts | 79° |
| 2026-04-20 18:00 | 46.84847 | -5.50260 | 39046 ft | 511 kts | 79° |
| 2026-04-20 18:01 | 46.86147 | -5.40043 | 39044 ft | 512 kts | 79° |
| 2026-04-20 18:01 | 46.87439 | -5.29823 | 39040 ft | 511 kts | 79° |
| 2026-04-20 18:02 | 46.88726 | -5.19561 | 39040 ft | 513 kts | 79° |
| 2026-04-20 18:02 | 46.90004 | -5.09293 | 39042 ft | 514 kts | 79° |
| 2026-04-20 18:03 | 46.91273 | -4.99014 | 39041 ft | 514 kts | 79° |
| 2026-04-20 18:03 | 46.92534 | -4.88717 | 39043 ft | 514 kts | 79° |
| 2026-04-20 18:04 | 46.93787 | -4.78407 | 39042 ft | 515 kts | 79° |
| 2026-04-20 18:04 | 46.95033 | -4.68079 | 39044 ft | 515 kts | 79° |
| 2026-04-20 18:05 | 46.96883 | -4.52588 | 39041 ft | 515 kts | 79° |
| 2026-04-20 18:05 | 46.98105 | -4.42252 | 39041 ft | 515 kts | 79° |
| 2026-04-20 18:06 | 46.99310 | -4.31977 | 39043 ft | 515 kts | 80° |
| 2026-04-20 18:06 | 47.00514 | -4.21630 | 39044 ft | 515 kts | 80° |
| 2026-04-20 18:07 | 47.01707 | -4.11288 | 39045 ft | 515 kts | 80° |
| 2026-04-20 18:07 | 47.02893 | -4.00922 | 39043 ft | 515 kts | 80° |
| 2026-04-20 18:08 | 47.04070 | -3.90553 | 39039 ft | 516 kts | 80° |
| 2026-04-20 18:08 | 47.05236 | -3.80187 | 39039 ft | 516 kts | 80° |
| 2026-04-20 18:09 | 47.06394 | -3.69813 | 39040 ft | 516 kts | 80° |
| 2026-04-20 18:09 | 47.07543 | -3.59419 | 39041 ft | 516 kts | 80° |
| 2026-04-20 18:10 | 47.08684 | -3.49019 | 39045 ft | 516 kts | 80° |
| 2026-04-20 18:10 | 47.09815 | -3.38616 | 39044 ft | 516 kts | 80° |
| 2026-04-20 18:11 | 47.10929 | -3.28276 | 39051 ft | 516 kts | 80° |
| 2026-04-20 18:11 | 47.12042 | -3.17855 | 39043 ft | 517 kts | 80° |
| 2026-04-20 18:12 | 47.13147 | -3.07423 | 39039 ft | 517 kts | 80° |
| 2026-04-20 18:12 | 47.14560 | -2.97088 | 39044 ft | 516 kts | 73° |
| 2026-04-20 18:13 | 47.16511 | -2.86945 | 39037 ft | 515 kts | 72° |
| 2026-04-20 18:13 | 47.18538 | -2.76839 | 39037 ft | 516 kts | 72° |
| 2026-04-20 18:14 | 47.20563 | -2.66721 | 39045 ft | 516 kts | 72° |
| 2026-04-20 18:14 | 47.22569 | -2.56591 | 39044 ft | 516 kts | 72° |
| 2026-04-20 18:15 | 47.24561 | -2.46444 | 39050 ft | 516 kts | 72° |
| 2026-04-20 18:15 | 47.26541 | -2.36299 | 39046 ft | 516 kts | 72° |
| 2026-04-20 18:16 | 47.28513 | -2.26146 | 39048 ft | 516 kts | 72° |
| 2026-04-20 18:16 | 47.30475 | -2.15988 | 39048 ft | 516 kts | 72° |
| 2026-04-20 18:17 | 47.32431 | -2.05812 | 39053 ft | 516 kts | 72° |
| 2026-04-20 18:17 | 47.34377 | -1.95634 | 39048 ft | 516 kts | 72° |
| 2026-04-20 18:18 | 47.36272 | -1.85509 | 39048 ft | 516 kts | 73° |
| 2026-04-20 18:18 | 47.38084 | -1.75273 | 39049 ft | 515 kts | 73° |
| 2026-04-20 18:19 | 47.39878 | -1.65034 | 39058 ft | 515 kts | 73° |
| 2026-04-20 18:19 | 47.41677 | -1.54795 | 39054 ft | 516 kts | 73° |
| 2026-04-20 18:20 | 47.43435 | -1.44781 | 39052 ft | 516 kts | 73° |
| 2026-04-20 18:20 | 47.45226 | -1.34530 | 39056 ft | 515 kts | 73° |
| 2026-04-20 18:21 | 47.47008 | -1.24264 | 39069 ft | 515 kts | 73° |
| 2026-04-20 18:21 | 47.48780 | -1.13998 | 39064 ft | 515 kts | 73° |
| 2026-04-20 18:22 | 47.50542 | -1.03725 | 39061 ft | 515 kts | 73° |
| 2026-04-20 18:22 | 47.52295 | -0.93446 | 39065 ft | 516 kts | 73° |
| 2026-04-20 18:23 | 47.53420 | -0.82962 | 39074 ft | 518 kts | 88° |
| 2026-04-20 18:23 | 47.53128 | -0.72291 | 39068 ft | 520 kts | 93° |
| 2026-04-20 18:24 | 47.52576 | -0.61629 | 39072 ft | 520 kts | 94° |
| 2026-04-20 18:24 | 47.51998 | -0.50948 | 39075 ft | 520 kts | 94° |
| 2026-04-20 18:25 | 47.51437 | -0.40281 | 38931 ft | 520 kts | 94° |
| 2026-04-20 18:25 | 47.51159 | -0.34963 | 38229 ft | 519 kts | 94° |
| 2026-04-20 18:25 | 47.50881 | -0.29651 | 37561 ft | 517 kts | 94° |
| 2026-04-20 18:26 | 47.50602 | -0.24359 | 36934 ft | 515 kts | 94° |
| 2026-04-20 18:26 | 47.50326 | -0.19160 | 36315 ft | 513 kts | 93° |
| 2026-04-20 18:26 | 47.50044 | -0.13912 | 35671 ft | 512 kts | 93° |
| 2026-04-20 18:26 | 47.49759 | -0.08660 | 35022 ft | 512 kts | 93° |
| 2026-04-20 18:27 | 47.49472 | -0.03401 | 34295 ft | 514 kts | 93° |
| 2026-04-20 18:27 | 47.49181 | 0.01880 | 33487 ft | 516 kts | 93° |
| 2026-04-20 18:27 | 47.48886 | 0.07175 | 32712 ft | 517 kts | 93° |
| 2026-04-20 18:27 | 47.48589 | 0.12476 | 31928 ft | 518 kts | 93° |
| 2026-04-20 18:28 | 47.48289 | 0.17781 | 31128 ft | 520 kts | 93° |
| 2026-04-20 18:28 | 47.47985 | 0.23123 | 30315 ft | 523 kts | 93° |
| 2026-04-20 18:28 | 47.47765 | 0.28491 | 29556 ft | 522 kts | 87° |
| 2026-04-20 18:28 | 47.48187 | 0.33755 | 29010 ft | 511 kts | 72° |
| 2026-04-20 18:29 | 47.49413 | 0.38581 | 28442 ft | 495 kts | 56° |
| 2026-04-20 18:29 | 47.51322 | 0.42693 | 27903 ft | 481 kts | 45° |
| 2026-04-20 18:29 | 47.53460 | 0.46463 | 27341 ft | 477 kts | 44° |
| 2026-04-20 18:29 | 47.55619 | 0.50180 | 26802 ft | 473 kts | 44° |
| 2026-04-20 18:30 | 47.57754 | 0.53862 | 26267 ft | 469 kts | 44° |
| 2026-04-20 18:30 | 47.59863 | 0.57512 | 25754 ft | 464 kts | 44° |
| 2026-04-20 18:30 | 47.61942 | 0.61119 | 25216 ft | 459 kts | 44° |
| 2026-04-20 18:30 | 47.64003 | 0.64703 | 24701 ft | 455 kts | 44° |
| 2026-04-20 18:31 | 47.66053 | 0.68271 | 24190 ft | 453 kts | 44° |
| 2026-04-20 18:31 | 47.68090 | 0.71823 | 23651 ft | 450 kts | 44° |
| 2026-04-20 18:31 | 47.70105 | 0.75343 | 23087 ft | 446 kts | 44° |
| 2026-04-20 18:31 | 47.72105 | 0.78843 | 22568 ft | 442 kts | 44° |
| 2026-04-20 18:32 | 47.74083 | 0.82308 | 22058 ft | 438 kts | 44° |
| 2026-04-20 18:32 | 47.76045 | 0.85748 | 21546 ft | 435 kts | 44° |
| 2026-04-20 18:32 | 47.77995 | 0.89174 | 21028 ft | 431 kts | 45° |
| 2026-04-20 18:32 | 47.79921 | 0.92559 | 20545 ft | 427 kts | 45° |
| 2026-04-20 18:33 | 47.81808 | 0.95880 | 20014 ft | 425 kts | 45° |
| 2026-04-20 18:33 | 47.83734 | 0.99274 | 19493 ft | 421 kts | 45° |
| 2026-04-20 18:33 | 47.85613 | 1.02591 | 18968 ft | 418 kts | 45° |
| 2026-04-20 18:33 | 47.87480 | 1.05890 | 18451 ft | 414 kts | 46° |
| 2026-04-20 18:34 | 47.89299 | 1.09109 | 17900 ft | 410 kts | 46° |
| 2026-04-20 18:34 | 47.91124 | 1.12342 | 17371 ft | 405 kts | 46° |
| 2026-04-20 18:34 | 47.92923 | 1.15534 | 16848 ft | 400 kts | 46° |
| 2026-04-20 18:34 | 47.94703 | 1.18693 | 16360 ft | 395 kts | 46° |
| 2026-04-20 18:35 | 47.96460 | 1.21816 | 15851 ft | 391 kts | 47° |
| 2026-04-20 18:35 | 47.98200 | 1.24912 | 15339 ft | 387 kts | 47° |
| 2026-04-20 18:35 | 47.99919 | 1.27975 | 14848 ft | 383 kts | 47° |
| 2026-04-20 18:35 | 48.01618 | 1.31005 | 14335 ft | 379 kts | 47° |
| 2026-04-20 18:36 | 48.03303 | 1.34014 | 13835 ft | 375 kts | 47° |
| 2026-04-20 18:36 | 48.04973 | 1.36980 | 13284 ft | 371 kts | 46° |
| 2026-04-20 18:36 | 48.06838 | 1.39582 | 12882 ft | 367 kts | 34° |
| 2026-04-20 18:36 | 48.08921 | 1.41762 | 12766 ft | 359 kts | 31° |
| 2026-04-20 18:37 | 48.10953 | 1.43806 | 12518 ft | 345 kts | 31° |
| 2026-04-20 18:37 | 48.12903 | 1.45767 | 12250 ft | 329 kts | 31° |
| 2026-04-20 18:37 | 48.14742 | 1.47620 | 11808 ft | 310 kts | 31° |
| 2026-04-20 18:37 | 48.16498 | 1.49391 | 11397 ft | 301 kts | 31° |
| 2026-04-20 18:38 | 48.18208 | 1.51117 | 11083 ft | 293 kts | 31° |
| 2026-04-20 18:38 | 48.19896 | 1.52823 | 10805 ft | 292 kts | 31° |
| 2026-04-20 18:38 | 48.21580 | 1.54526 | 10515 ft | 291 kts | 31° |
| 2026-04-20 18:38 | 48.23254 | 1.56219 | 10258 ft | 289 kts | 31° |
| 2026-04-20 18:39 | 48.24914 | 1.57904 | 10110 ft | 288 kts | 31° |
| 2026-04-20 18:39 | 48.26015 | 1.59019 | 10109 ft | 288 kts | 31° |
| 2026-04-20 18:39 | 48.27673 | 1.60706 | 10110 ft | 288 kts | 32° |
| 2026-04-20 18:39 | 48.29326 | 1.62391 | 10110 ft | 287 kts | 31° |
| 2026-04-20 18:40 | 48.31519 | 1.64624 | 10116 ft | 287 kts | 32° |
| 2026-04-20 18:40 | 48.33172 | 1.66310 | 10117 ft | 288 kts | 32° |
| 2026-04-20 18:40 | 48.34829 | 1.68002 | 10105 ft | 288 kts | 32° |
| 2026-04-20 18:40 | 48.35948 | 1.69143 | 10005 ft | 287 kts | 32° |
| 2026-04-20 18:41 | 48.37589 | 1.70822 | 9790 ft | 280 kts | 32° |
| 2026-04-20 18:41 | 48.39171 | 1.72442 | 9572 ft | 270 kts | 31° |
| 2026-04-20 18:41 | 48.40695 | 1.74005 | 9351 ft | 261 kts | 32° |
| 2026-04-20 18:41 | 48.42144 | 1.75511 | 9136 ft | 252 kts | 32° |
| 2026-04-20 18:42 | 48.43574 | 1.77003 | 8921 ft | 249 kts | 32° |
| 2026-04-20 18:42 | 48.44995 | 1.78478 | 8714 ft | 248 kts | 32° |
| 2026-04-20 18:42 | 48.46411 | 1.79951 | 8519 ft | 247 kts | 32° |
| 2026-04-20 18:42 | 48.47840 | 1.81439 | 8309 ft | 246 kts | 31° |
| 2026-04-20 18:43 | 48.49226 | 1.82880 | 8111 ft | 245 kts | 32° |
| 2026-04-20 18:43 | 48.50626 | 1.84340 | 7906 ft | 244 kts | 31° |
| 2026-04-20 18:43 | 48.52019 | 1.85792 | 7686 ft | 243 kts | 31° |
| 2026-04-20 18:43 | 48.53409 | 1.87241 | 7497 ft | 242 kts | 32° |
| 2026-04-20 18:44 | 48.54792 | 1.88681 | 7298 ft | 241 kts | 32° |
| 2026-04-20 18:44 | 48.56171 | 1.90122 | 7119 ft | 240 kts | 32° |
| 2026-04-20 18:44 | 48.57511 | 1.91611 | 6894 ft | 240 kts | 39° |
| 2026-04-20 18:44 | 48.58551 | 1.93563 | 6620 ft | 239 kts | 58° |
| 2026-04-20 18:45 | 48.59323 | 1.95782 | 6222 ft | 237 kts | 62° |
| 2026-04-20 18:45 | 48.60028 | 1.97999 | 5807 ft | 231 kts | 62° |
| 2026-04-20 18:45 | 48.60770 | 2.00114 | 5382 ft | 225 kts | 60° |
| 2026-04-20 18:45 | 48.61513 | 2.02166 | 4907 ft | 220 kts | 61° |
| 2026-04-20 18:46 | 48.62238 | 2.04162 | 4458 ft | 212 kts | 60° |
| 2026-04-20 18:46 | 48.62937 | 2.06061 | 4159 ft | 199 kts | 61° |
| 2026-04-20 18:46 | 48.63563 | 2.07839 | 3901 ft | 184 kts | 61° |
| 2026-04-20 18:46 | 48.64143 | 2.09486 | 3649 ft | 172 kts | 61° |
| 2026-04-20 18:47 | 48.64703 | 2.11062 | 3455 ft | 169 kts | 60° |
| 2026-04-20 18:47 | 48.65253 | 2.12613 | 3232 ft | 166 kts | 62° |
| 2026-04-20 18:47 | 48.65795 | 2.14150 | 2992 ft | 165 kts | 60° |
| 2026-04-20 18:47 | 48.66334 | 2.15673 | 2766 ft | 164 kts | 60° |
| 2026-04-20 18:48 | 48.66875 | 2.17199 | 2544 ft | 165 kts | 61° |
| 2026-04-20 18:48 | 48.67414 | 2.18722 | 2314 ft | 164 kts | 60° |
| 2026-04-20 18:48 | 48.67953 | 2.20244 | 2094 ft | 164 kts | 60° |
| 2026-04-20 18:48 | 48.68476 | 2.21728 | 1860 ft | 153 kts | 59° |
| 2026-04-20 18:49 | 48.68957 | 2.23085 | 1659 ft | 141 kts | 58° |
| 2026-04-20 18:49 | 48.69402 | 2.24339 | 1464 ft | 130 kts | 58° |
| 2026-04-20 18:49 | 48.69805 | 2.25519 | 1216 ft | 125 kts | 63° |
| 2026-04-20 18:49 | 48.70227 | 2.26702 | 1109 ft | 132 kts | 59° |
| 2026-04-20 18:50 | 48.70679 | 2.27914 | 932 ft | 130 kts | 59° |
| 2026-04-20 18:50 | 48.71081 | 2.29125 | 771 ft | 130 kts | 61° |
| 2026-04-20 18:50 | 48.71503 | 2.30314 | 571 ft | 126 kts | 56° |
| 2026-04-20 18:50 | 48.71931 | 2.31495 | 399 ft | 130 kts | 59° |
| 2026-04-20 18:51 | 48.72351 | 2.32693 | 303 ft | 126 kts | 59° |
| 2026-04-20 18:51 | 48.72725 | 2.33742 | 300 ft | 100 kts | 63° |
| 2026-04-20 18:51 | 48.73006 | 2.34539 | 296 ft | 70 kts | 62° |
| 2026-04-20 18:51 | 48.73183 | 2.35043 | 297 ft | 40 kts | 62° |
| 2026-04-20 18:52 | 48.73270 | 2.35296 | 297 ft | 15 kts | 70° |
| 2026-04-20 18:52 | 48.73245 | 2.35444 | 297 ft | 16 kts | 138° |
| 2026-04-20 18:52 | 48.73141 | 2.35453 | 296 ft | 16 kts | 197° |
| 2026-04-20 18:52 | 48.73027 | 2.35397 | 295 ft | 19 kts | 199° |
| 2026-04-20 18:53 | 48.72891 | 2.35327 | 293 ft | 22 kts | 199° |
| 2026-04-20 18:53 | 48.72731 | 2.35253 | 295 ft | 25 kts | 184° |
| 2026-04-20 18:53 | 48.72553 | 2.35319 | 295 ft | 28 kts | 164° |
| 2026-04-20 18:53 | 48.72364 | 2.35419 | 297 ft | 30 kts | 144° |
| 2026-04-20 18:54 | 48.72313 | 2.35637 | 296 ft | 21 kts | 75° |
| 2026-04-20 18:54 | 48.72355 | 2.35857 | 293 ft | 23 kts | 73° |
| 2026-04-20 18:54 | 48.72401 | 2.36097 | 295 ft | 24 kts | 73° |
| 2026-04-20 18:54 | 48.72445 | 2.36352 | 297 ft | 26 kts | 76° |
| 2026-04-20 18:55 | 48.72491 | 2.36625 | 295 ft | 27 kts | 75° |
| 2026-04-20 18:55 | 48.72545 | 2.36908 | 292 ft | 29 kts | 72° |
| 2026-04-20 18:55 | 48.72604 | 2.37204 | 295 ft | 30 kts | 74° |
| 2026-04-20 18:55 | 48.72644 | 2.37429 | 293 ft | 15 kts | 74° |
| 2026-04-20 18:56 | 48.72676 | 2.37597 | 295 ft | 18 kts | 74° |
| 2026-04-20 18:56 | 48.72710 | 2.37788 | 296 ft | 20 kts | 75° |
| 2026-04-20 18:56 | 48.72779 | 2.37889 | 296 ft | 12 kts | 9° |
| 2026-04-20 18:56 | 48.72852 | 2.37919 | 296 ft | 0 kts | 21° |
| 2026-04-20 18:57 | 48.72860 | 2.37924 | 296 ft | 3 kts | 21° |
| 2026-04-20 18:57 | 48.72892 | 2.37943 | 296 ft | 7 kts | 21° |
| 2026-04-20 18:57 | 48.72946 | 2.37974 | 297 ft | 10 kts | 17° |
| 2026-04-20 18:57 | 48.73020 | 2.38008 | 297 ft | 13 kts | 18° |
| 2026-04-20 18:58 | 48.73079 | 2.37953 | 297 ft | 10 kts | 277° |
| 2026-04-20 18:58 | 48.73041 | 2.37886 | 294 ft | 10 kts | 206° |
| 2026-04-20 18:58 | 48.72961 | 2.37842 | 295 ft | 14 kts | 198° |
| 2026-04-20 18:58 | 48.72864 | 2.37794 | 295 ft | 8 kts | 198° |
| 2026-04-20 18:59 | 48.72850 | 2.37752 | 293 ft | 5 kts | 269° |
| 2026-04-20 18:59 | 48.72871 | 2.37697 | 296 ft | 7 kts | 317° |
| 2026-04-20 18:59 | 48.72911 | 2.37630 | 296 ft | 5 kts | 311° |
| 2026-04-20 18:59 | 48.72919 | 2.37616 | 295 ft | 4 kts | 310° |
| 2026-04-20 19:00 | 48.72924 | 2.37607 | 290 ft | 0 kts | 310° |